UA3651 / N642RW 7700 Squawk Report (23rd of November, 2021)

Aircraft E170 Reg No. N642RW Age N/A
Model Emb-170 Jet engines 2 First flight 12-04
Registered 31-01-17 Rollout 12-04 Delivered 03-01-05
Construction No. 17000063 Line No. N/A Series 100SE
ADSHEX A86E35 Airline name United Express Owner Republic Airways
Airfield based Indianapolis-International~IN~N First tracked N/A

Flight history for N642RW

Route Flight No Date Playback
Newark Liberty Intl (EWR) - Charlotte Douglas (CLT) UA3429 2022-01-20 22:24:00
Nashville Intl (BNA) - Newark Liberty Intl (EWR) UA3424 2022-01-20 20:56:00
Newark Liberty Intl (EWR) - Nashville Intl (BNA) UA3481 2022-01-20 16:46:00
Key West Intl (EYW) - Newark Liberty Intl (EWR) UA3601 2022-01-20 04:22:00
Newark Liberty Intl (EWR) - Key West Intl (EYW) UA3455 2022-01-19 20:50:00
Key West Intl (EYW) - Newark Liberty Intl (EWR) UA3715 2022-01-19 16:02:00
Newark Liberty Intl (EWR) - Key West Intl (EYW) UA3518 2022-01-19 02:59:00
Pierre Elliott Trudeau (YUL) - Newark Liberty Intl (EWR) UA3610 2022-01-18 22:26:00
Chicago Ohare Intl (ORD) - Pierre Elliott Trudeau (YUL) UA3668 2022-01-18 21:18:00
Ronald Reagan Washington Natl (DCA) - Chicago Ohare Intl (ORD) UA3457 2022-01-18 17:19:00
Chicago Ohare Intl (ORD) - Ronald Reagan Washington Natl (DCA) UA3524 2022-01-18 00:38:00
Raleigh Durham Intl (RDU) - Chicago Ohare Intl (ORD) UA3453 2022-01-17 20:51:00
Newark Liberty Intl (EWR) - Raleigh Durham Intl (RDU) UA3449 2022-01-17 18:58:00
Cincinnati Northern Kentucky Intl (CVG) - Newark Liberty Intl (EWR) UA3648 2022-01-17 01:18:00
Newark Liberty Intl (EWR) - Cincinnati Northern Kentucky Intl (CVG) UA3602 2022-01-16 22:08:00
Charleston Afb Intl (CHS) - Newark Liberty Intl (EWR) UA3644 2022-01-16 18:49:00
Chicago Ohare Intl (ORD) - Charleston Afb Intl (CHS) UA3526 2022-01-15 22:10:00
Kansas City Intl (MCI) - Chicago Ohare Intl (ORD) UA3669 2022-01-15 18:34:00
Hartsfield Jackson Atlanta Intl (ATL) - Kansas City Intl (MCI) UA3309 2022-01-15 03:13:00
Lambert St Louis Intl (STL) - Hartsfield Jackson Atlanta Intl (ATL) UA3301 2022-01-14 18:26:00
Time Lat Lon Altitude Heading Speed Vertical Rate
2021-11-23 16:41:21 GMT 40.496529 -80.244392 0 302 5 -64
2021-11-23 16:41:20 GMT 40.496521 -80.244362 0 302 5 -64
2021-11-23 16:41:18 GMT 40.496490 -80.244308 0 302 5 -64
2021-11-23 16:41:16 GMT 40.496460 -80.244263 0 302 5 -64
2021-11-23 16:41:15 GMT 40.496449 -80.244232 0 302 5 -64
2021-11-23 16:41:13 GMT 40.496441 -80.244179 0 298 6 -64
2021-11-23 16:41:12 GMT 40.496422 -80.244148 0 298 6 -64
2021-11-23 16:41:10 GMT 40.496399 -80.244080 0 295 6 -64
2021-11-23 16:41:08 GMT 40.496349 -80.244034 0 288 6 -64
2021-11-23 16:41:07 GMT 40.496330 -80.244011 0 288 6 -64
2021-11-23 16:41:06 GMT 40.496300 -80.243988 0 288 6 -64
2021-11-23 16:41:03 GMT 40.496220 -80.243912 0 288 5 -64
2021-11-23 16:41:02 GMT 40.496159 -80.243950 0 288 6 -64
2021-11-23 16:41:00 GMT 40.496151 -80.243874 0 283 7 -64
2021-11-23 16:40:59 GMT 40.496140 -80.243828 0 283 6 -64
2021-11-23 16:40:58 GMT 40.496140 -80.243790 0 261 8 -64
2021-11-23 16:40:56 GMT 40.496040 -80.243820 0 261 10 -64
2021-11-23 16:40:55 GMT 40.496021 -80.243767 0 257 10 -64
2021-11-23 16:40:53 GMT 40.496010 -80.243668 0 252 12 -64
2021-11-23 16:40:52 GMT 40.496021 -80.243607 0 254 13 -64
2021-11-23 16:40:51 GMT 40.496040 -80.243523 0 252 18 -64
2021-11-23 16:40:49 GMT 40.496021 -80.243347 0 248 15 -64
2021-11-23 16:40:48 GMT 40.496059 -80.243179 0 248 11 -64
2021-11-23 16:40:46 GMT 40.496170 -80.243217 0 254 13 -64
2021-11-23 16:40:44 GMT 40.496208 -80.243080 0 236 13 -64
2021-11-23 16:40:43 GMT 40.496262 -80.243011 0 236 13 -64
2021-11-23 16:40:42 GMT 40.496269 -80.242950 0 235 13 -64
2021-11-23 16:40:40 GMT 40.496361 -80.242828 0 239 13 -64
2021-11-23 16:40:39 GMT 40.496380 -80.242790 0 239 14 -64
2021-11-23 16:40:37 GMT 40.496460 -80.242622 0 242 12 -64
2021-11-23 16:40:36 GMT 40.496498 -80.242554 0 244 12 -64
2021-11-23 16:40:34 GMT 40.496559 -80.242432 0 249 13 -64
2021-11-23 16:40:33 GMT 40.496609 -80.242378 0 264 12 -64
2021-11-23 16:40:31 GMT 40.496651 -80.242249 0 269 13 -64
2021-11-23 16:40:30 GMT 40.496658 -80.242111 0 270 13 -64
2021-11-23 16:40:28 GMT 40.496658 -80.242020 0 271 13 -64
2021-11-23 16:40:26 GMT 40.496658 -80.241859 0 272 13 -64
2021-11-23 16:40:25 GMT 40.496658 -80.241783 0 272 13 -64
2021-11-23 16:40:23 GMT 40.496670 -80.241631 0 275 13 -64
2021-11-23 16:40:22 GMT 40.496670 -80.241570 0 275 14 -64
2021-11-23 16:40:20 GMT 40.496658 -80.241417 0 274 14 -64
2021-11-23 16:40:19 GMT 40.496639 -80.241341 0 272 14 -64
2021-11-23 16:40:17 GMT 40.496639 -80.241158 0 272 14 -64
2021-11-23 16:40:15 GMT 40.496620 -80.240982 0 269 13 -64
2021-11-23 16:40:14 GMT 40.496620 -80.240898 0 269 13 -64
2021-11-23 16:40:12 GMT 40.496632 -80.240730 0 271 13 -64
2021-11-23 16:40:11 GMT 40.496632 -80.240639 0 273 12 -64
2021-11-23 16:40:10 GMT 40.496620 -80.240501 0 273 12 -64
2021-11-23 16:40:08 GMT 40.496620 -80.240433 0 272 13 -64
2021-11-23 16:40:07 GMT 40.496609 -80.240349 0 271 12 -64
2021-11-23 16:40:05 GMT 40.496609 -80.240189 0 271 12 -64
2021-11-23 16:40:04 GMT 40.496609 -80.240112 0 271 11 -64
2021-11-23 16:40:03 GMT 40.496601 -80.239952 0 271 10 -64
2021-11-23 16:40:01 GMT 40.496601 -80.239891 0 271 10 -64
2021-11-23 16:39:59 GMT 40.496601 -80.239769 0 272 10 -64
2021-11-23 16:39:58 GMT 40.496609 -80.239708 0 275 10 -64
2021-11-23 16:39:57 GMT 40.496609 -80.239670 0 275 11 -64
2021-11-23 16:39:56 GMT 40.496609 -80.239609 0 276 12 -64
2021-11-23 16:39:54 GMT 40.496601 -80.239487 0 279 13 -64
2021-11-23 16:39:53 GMT 40.496590 -80.239311 0 287 11 -64
2021-11-23 16:39:51 GMT 40.496578 -80.239227 0 292 10 -64
2021-11-23 16:39:50 GMT 40.496571 -80.239159 0 297 9 -64
2021-11-23 16:39:49 GMT 40.496571 -80.239067 0 314 13 -64
2021-11-23 16:39:47 GMT 40.496521 -80.238968 0 333 10 -64
2021-11-23 16:39:45 GMT 40.496460 -80.238853 0 359 11 -64
2021-11-23 16:39:43 GMT 40.496368 -80.238831 0 2 12 -64
2021-11-23 16:39:42 GMT 40.496319 -80.238838 0 1 12 -64
2021-11-23 16:39:41 GMT 40.496201 -80.238853 0 359 11 -64
2021-11-23 16:39:38 GMT 40.496101 -80.238861 0 356 12 -64
2021-11-23 16:39:37 GMT 40.496052 -80.238861 0 357 12 -64
2021-11-23 16:39:36 GMT 40.495998 -80.238853 0 357 12 -64
2021-11-23 16:39:34 GMT 40.495892 -80.238853 0 356 12 -64
2021-11-23 16:39:33 GMT 40.495831 -80.238838 0 359 12 -64
2021-11-23 16:39:31 GMT 40.495720 -80.238808 0 2 12 -64
2021-11-23 16:39:30 GMT 40.495670 -80.238823 0 1 12 -64
2021-11-23 16:39:29 GMT 40.495621 -80.238831 0 1 12 -64
2021-11-23 16:39:27 GMT 40.495510 -80.238831 0 1 13 -64
2021-11-23 16:39:25 GMT 40.495399 -80.238823 0 4 14 -64
2021-11-23 16:39:24 GMT 40.495338 -80.238831 0 2 14 -64
2021-11-23 16:39:22 GMT 40.495209 -80.238831 0 2 14 -64
2021-11-23 16:39:21 GMT 40.495152 -80.238853 0 1 14 -64
2021-11-23 16:39:20 GMT 40.495090 -80.238861 0 359 14 -64
2021-11-23 16:39:18 GMT 40.494961 -80.238838 0 3 14 -64
2021-11-23 16:39:17 GMT 40.494888 -80.238838 0 4 13 -64
2021-11-23 16:39:15 GMT 40.494759 -80.238853 0 3 13 -64
2021-11-23 16:39:14 GMT 40.494690 -80.238861 0 3 12 -64
2021-11-23 16:39:12 GMT 40.494579 -80.238869 0 4 12 -64
2021-11-23 16:39:11 GMT 40.494518 -80.238869 0 4 13 -64
2021-11-23 16:39:09 GMT 40.494411 -80.238892 0 2 12 -64
2021-11-23 16:39:08 GMT 40.494350 -80.238899 0 2 12 -64
2021-11-23 16:39:06 GMT 40.494228 -80.238899 0 1 12 -64
2021-11-23 16:39:05 GMT 40.494171 -80.238907 0 1 12 -64
2021-11-23 16:39:04 GMT 40.494122 -80.238907 0 0 12 -64
2021-11-23 16:39:02 GMT 40.494011 -80.238907 0 1 12 -64
2021-11-23 16:39:01 GMT 40.493950 -80.238922 0 1 12 -64
2021-11-23 16:39:00 GMT 40.493900 -80.238922 0 1 12 -64
2021-11-23 16:38:59 GMT 40.493851 -80.238907 0 1 12 -64
2021-11-23 16:38:57 GMT 40.493740 -80.238922 0 0 12 -64
2021-11-23 16:38:56 GMT 40.493679 -80.238930 0 359 12 -64
2021-11-23 16:38:54 GMT 40.493561 -80.238930 0 359 12 -64
2021-11-23 16:38:52 GMT 40.493450 -80.238922 0 2 11 -64
2021-11-23 16:38:51 GMT 40.493401 -80.238937 0 0 11 -64
2021-11-23 16:38:50 GMT 40.493351 -80.238922 0 3 12 -64
2021-11-23 16:38:48 GMT 40.493271 -80.238899 0 5 13 -64
2021-11-23 16:38:46 GMT 40.493149 -80.238922 0 5 14 -64
2021-11-23 16:38:45 GMT 40.493092 -80.238937 0 4 14 -64
2021-11-23 16:38:44 GMT 40.492962 -80.238953 0 4 14 -64
2021-11-23 16:38:42 GMT 40.492889 -80.238983 0 0 13 -64
2021-11-23 16:38:40 GMT 40.492771 -80.238991 0 359 14 -64
2021-11-23 16:38:39 GMT 40.492699 -80.238983 0 0 14 -64
2021-11-23 16:38:37 GMT 40.492569 -80.238983 0 1 13 -64
2021-11-23 16:38:36 GMT 40.492512 -80.238983 0 2 13 -64
2021-11-23 16:38:35 GMT 40.492439 -80.238983 0 3 13 -64
2021-11-23 16:38:33 GMT 40.492329 -80.238991 0 2 13 -64
2021-11-23 16:38:32 GMT 40.492271 -80.238991 0 3 13 -64
2021-11-23 16:38:30 GMT 40.492142 -80.238998 0 2 13 -64
2021-11-23 16:38:29 GMT 40.492081 -80.238998 0 2 13 -64
2021-11-23 16:38:28 GMT 40.491959 -80.239014 0 3 14 -64
2021-11-23 16:38:26 GMT 40.491901 -80.239014 0 3 14 -64
2021-11-23 16:38:25 GMT 40.491772 -80.239021 0 2 13 -64
2021-11-23 16:38:23 GMT 40.491711 -80.239029 0 0 13 -64
2021-11-23 16:38:22 GMT 40.491650 -80.239029 0 0 13 -64
2021-11-23 16:38:20 GMT 40.491508 -80.239052 0 355 12 -64
2021-11-23 16:38:19 GMT 40.491451 -80.239059 0 354 12 -64
2021-11-23 16:38:18 GMT 40.491390 -80.239059 0 351 12 -64
2021-11-23 16:38:16 GMT 40.491261 -80.239052 0 348 11 -64
2021-11-23 16:38:15 GMT 40.491211 -80.239037 0 346 11 -64
2021-11-23 16:38:14 GMT 40.491161 -80.239029 0 346 12 -64
2021-11-23 16:38:12 GMT 40.491058 -80.239014 0 337 12 -64
2021-11-23 16:38:11 GMT 40.490990 -80.238991 0 334 12 -64
2021-11-23 16:38:09 GMT 40.490879 -80.238960 0 315 12 -64
2021-11-23 16:38:08 GMT 40.490829 -80.238899 0 311 10 -64
2021-11-23 16:38:06 GMT 40.490749 -80.238823 0 292 13 -64
2021-11-23 16:38:05 GMT 40.490681 -80.238770 0 280 12 -64
2021-11-23 16:38:03 GMT 40.490639 -80.238640 0 269 13 -64
2021-11-23 16:38:02 GMT 40.490631 -80.238571 0 267 13 -64
2021-11-23 16:38:00 GMT 40.490639 -80.238419 0 271 14 -64
2021-11-23 16:37:59 GMT 40.490650 -80.238258 0 274 15 -64
2021-11-23 16:37:57 GMT 40.490639 -80.238182 0 274 16 -64
2021-11-23 16:37:56 GMT 40.490639 -80.238098 0 274 16 -64
2021-11-23 16:37:55 GMT 40.490620 -80.237907 0 272 16 -64
2021-11-23 16:37:53 GMT 40.490608 -80.237808 0 271 16 -64
2021-11-23 16:37:52 GMT 40.490601 -80.237610 0 270 16 -64
2021-11-23 16:37:50 GMT 40.490601 -80.237511 0 269 16 -64
2021-11-23 16:37:49 GMT 40.490601 -80.237312 0 269 16 -64
2021-11-23 16:37:47 GMT 40.490601 -80.237198 0 269 16 -64
2021-11-23 16:37:46 GMT 40.490608 -80.237030 0 272 17 -64
2021-11-23 16:37:44 GMT 40.490601 -80.236923 0 271 17 -64
2021-11-23 16:37:43 GMT 40.490601 -80.236732 0 272 17 -64
2021-11-23 16:37:41 GMT 40.490601 -80.236633 0 272 17 -64
2021-11-23 16:37:40 GMT 40.490589 -80.236519 0 272 17 -64
2021-11-23 16:37:38 GMT 40.490589 -80.236320 0 273 17 -64
2021-11-23 16:37:36 GMT 40.490582 -80.236107 0 272 17 -64
2021-11-23 16:37:35 GMT 40.490570 -80.236008 0 272 17 -64
2021-11-23 16:37:33 GMT 40.490559 -80.235802 0 271 17 -64
2021-11-23 16:37:32 GMT 40.490559 -80.235687 0 271 17 -64
2021-11-23 16:37:30 GMT 40.490559 -80.235474 0 271 17 -64
2021-11-23 16:37:29 GMT 40.490551 -80.235367 0 271 17 -64
2021-11-23 16:37:27 GMT 40.490559 -80.235161 0 273 16 -64
2021-11-23 16:37:26 GMT 40.490559 -80.235069 0 273 16 -64
2021-11-23 16:37:25 GMT 40.490551 -80.234970 0 272 16 -64
2021-11-23 16:37:23 GMT 40.490540 -80.234779 0 272 16 -64
2021-11-23 16:37:22 GMT 40.490540 -80.234680 0 272 16 -64
2021-11-23 16:37:21 GMT 40.490528 -80.234573 0 272 16 -64
2021-11-23 16:37:20 GMT 40.490520 -80.234367 0 270 16 -64
2021-11-23 16:37:18 GMT 40.490509 -80.234268 0 269 15 -64
2021-11-23 16:37:17 GMT 40.490509 -80.234070 0 268 15 -64
2021-11-23 16:37:15 GMT 40.490520 -80.233971 0 269 15 -64
2021-11-23 16:37:13 GMT 40.490528 -80.233803 0 272 15 -64
2021-11-23 16:37:12 GMT 40.490540 -80.233711 0 273 15 -64
2021-11-23 16:37:11 GMT 40.490520 -80.233528 0 272 15 -64
2021-11-23 16:37:09 GMT 40.490520 -80.233429 0 272 15 -64
2021-11-23 16:37:08 GMT 40.490520 -80.233337 0 272 14 -64
2021-11-23 16:37:06 GMT 40.490509 -80.233162 0 272 14 -64
2021-11-23 16:37:05 GMT 40.490520 -80.233093 0 274 15 -64
2021-11-23 16:37:04 GMT 40.490509 -80.233002 0 273 15 -64
2021-11-23 16:37:03 GMT 40.490501 -80.232819 0 273 14 -64
2021-11-23 16:37:01 GMT 40.490490 -80.232727 0 272 14 -64
2021-11-23 16:37:00 GMT 40.490479 -80.232552 0 270 14 -64
2021-11-23 16:36:58 GMT 40.490479 -80.232468 0 271 14 -64
2021-11-23 16:36:57 GMT 40.490479 -80.232307 0 273 14 -64
2021-11-23 16:36:55 GMT 40.490479 -80.232132 0 273 13 -64
2021-11-23 16:36:53 GMT 40.490479 -80.232048 0 273 13 -64
2021-11-23 16:36:52 GMT 40.490459 -80.231903 0 270 13 -64
2021-11-23 16:36:50 GMT 40.490452 -80.231750 0 268 13 -64
2021-11-23 16:36:47 GMT 40.490452 -80.231590 0 269 13 -64
2021-11-23 16:36:46 GMT 40.490459 -80.231506 0 269 13 -64
2021-11-23 16:36:45 GMT 40.490452 -80.231438 0 268 13 -64
2021-11-23 16:36:43 GMT 40.490452 -80.231277 0 267 13 -64
2021-11-23 16:36:42 GMT 40.490459 -80.231209 0 269 14 -64
2021-11-23 16:36:40 GMT 40.490479 -80.231041 0 274 14 -64
2021-11-23 16:36:39 GMT 40.490471 -80.230957 0 273 14 -64
2021-11-23 16:36:38 GMT 40.490471 -80.230782 0 276 13 -64
2021-11-23 16:36:36 GMT 40.490471 -80.230698 0 275 13 -64
2021-11-23 16:36:35 GMT 40.490452 -80.230621 0 275 13 -64
2021-11-23 16:36:33 GMT 40.490429 -80.230377 0 273 12 -64
2021-11-23 16:36:31 GMT 40.490429 -80.230309 0 274 12 -64
2021-11-23 16:36:29 GMT 40.490429 -80.230148 0 275 11 -64
2021-11-23 16:36:28 GMT 40.490421 -80.230080 0 276 11 -64
2021-11-23 16:36:26 GMT 40.490421 -80.229942 0 282 10 -64
2021-11-23 16:36:25 GMT 40.490398 -80.229912 0 274 12 -64
2021-11-23 16:36:24 GMT 40.490379 -80.229767 0 281 12 -64
2021-11-23 16:36:22 GMT 40.490410 -80.229668 0 296 10 -64
2021-11-23 16:36:21 GMT 40.490398 -80.229599 0 299 10 -64
2021-11-23 16:36:20 GMT 40.490360 -80.229492 0 300 10 -64
2021-11-23 16:36:18 GMT 40.490341 -80.229431 0 301 10 -64
2021-11-23 16:36:15 GMT 40.490261 -80.229286 0 297 9 -64
2021-11-23 16:36:14 GMT 40.490231 -80.229179 0 299 9 -64
2021-11-23 16:36:12 GMT 40.490200 -80.229134 0 298 9 -64
2021-11-23 16:36:10 GMT 40.490150 -80.229027 0 295 8 -64
2021-11-23 16:36:09 GMT 40.490131 -80.228989 0 295 8 -64
2021-11-23 16:36:07 GMT 40.490101 -80.228897 0 298 8 -64
2021-11-23 16:36:06 GMT 40.490089 -80.228851 0 301 8 -64
2021-11-23 16:36:04 GMT 40.490059 -80.228760 0 302 8 -64
2021-11-23 16:36:03 GMT 40.490040 -80.228722 0 301 8 -64
2021-11-23 16:36:02 GMT 40.489990 -80.228630 0 302 8 -64
2021-11-23 16:36:00 GMT 40.489979 -80.228577 0 304 7 -64
2021-11-23 16:35:59 GMT 40.489960 -80.228531 0 306 7 -64
2021-11-23 16:35:58 GMT 40.489941 -80.228500 0 307 7 -64
2021-11-23 16:35:57 GMT 40.489910 -80.228432 0 310 7 -64
2021-11-23 16:35:55 GMT 40.489891 -80.228394 0 310 7 -64
2021-11-23 16:35:54 GMT 40.489849 -80.228317 0 313 7 -64
2021-11-23 16:35:52 GMT 40.489830 -80.228287 0 313 7 -64
2021-11-23 16:35:50 GMT 40.489792 -80.228218 0 321 7 -64
2021-11-23 16:35:49 GMT 40.489761 -80.228180 0 325 6 -64
2021-11-23 16:35:47 GMT 40.489712 -80.228119 0 329 5 -64
2021-11-23 16:35:46 GMT 40.489712 -80.228104 0 333 6 -64
2021-11-23 16:35:44 GMT 40.489651 -80.228073 0 338 5 -64
2021-11-23 16:35:43 GMT 40.489639 -80.228050 0 343 6 -64
2021-11-23 16:35:41 GMT 40.489578 -80.228020 0 0 5 -64
2021-11-23 16:35:39 GMT 40.489529 -80.227989 0 36 3 -64
2021-11-23 16:35:38 GMT 40.489510 -80.227989 0 44 3 -64
2021-11-23 16:35:36 GMT 40.489471 -80.227989 0 48 2 -64
2021-11-23 16:35:35 GMT 40.489441 -80.227997 0 48 1 -64
2021-11-23 16:35:33 GMT 40.489441 -80.228012 0 48 2 -64
2021-11-23 16:35:31 GMT 40.489410 -80.228043 0 48 1 -64
2021-11-23 16:35:29 GMT 40.489410 -80.228058 0 48 1 -64
2021-11-23 16:35:28 GMT 40.489422 -80.228058 0 48 1 -64
2021-11-23 16:35:26 GMT 40.489410 -80.228081 0 48 1 -64
2021-11-23 16:35:25 GMT 40.489391 -80.228088 0 48 0 -64
2021-11-23 16:35:22 GMT 40.489391 -80.228104 0 48 0 -64
2021-11-23 16:35:20 GMT 40.489391 -80.228111 0 48 1 -64
2021-11-23 16:35:19 GMT 40.489399 -80.228088 0 48 0 -64
2021-11-23 16:35:17 GMT 40.489399 -80.228081 0 48 0 -64
2021-11-23 16:35:16 GMT 40.489399 -80.228088 0 48 0 -64
2021-11-23 16:35:14 GMT 40.489391 -80.228073 0 48 1 -64
2021-11-23 16:35:13 GMT 40.489399 -80.228058 0 48 1 -64
2021-11-23 16:35:11 GMT 40.489391 -80.228081 0 48 1 -64
2021-11-23 16:35:10 GMT 40.489410 -80.228088 0 48 0 -64
2021-11-23 16:35:08 GMT 40.489410 -80.228088 0 48 0 -64
2021-11-23 16:35:06 GMT 40.489422 -80.228088 0 48 0 -64
2021-11-23 16:35:02 GMT 40.489429 -80.228081 0 48 1 -64
2021-11-23 16:35:00 GMT 40.489399 -80.228088 0 48 0 -64
2021-11-23 16:34:57 GMT 40.489399 -80.228081 0 48 0 -64
2021-11-23 16:34:51 GMT 40.489391 -80.228081 0 48 0 -64
2021-11-23 16:34:48 GMT 40.489391 -80.228104 0 48 0 -64
2021-11-23 16:34:45 GMT 40.489391 -80.228104 0 48 0 -64
2021-11-23 16:34:43 GMT 40.489391 -80.228088 0 48 0 -64
2021-11-23 16:34:42 GMT 40.489391 -80.228104 0 48 1 -64
2021-11-23 16:34:40 GMT 40.489391 -80.228088 0 48 1 -64
2021-11-23 16:34:39 GMT 40.489399 -80.228081 0 48 0 -64
2021-11-23 16:34:37 GMT 40.489422 -80.228081 0 48 0 -64
2021-11-23 16:34:36 GMT 40.489410 -80.228081 0 48 1 -64
2021-11-23 16:34:34 GMT 40.489422 -80.228081 0 48 1 -64
2021-11-23 16:34:33 GMT 40.489410 -80.228088 0 48 0 -64
2021-11-23 16:34:30 GMT 40.489399 -80.228088 0 48 0 -64
2021-11-23 16:34:28 GMT 40.489410 -80.228088 0 48 0 -64
2021-11-23 16:34:25 GMT 40.489410 -80.228073 0 48 0 -64
2021-11-23 16:34:23 GMT 40.489429 -80.228073 0 48 1 -64
2021-11-23 16:34:22 GMT 40.489422 -80.228081 0 48 1 -64
2021-11-23 16:34:20 GMT 40.489399 -80.228104 0 48 1 -64
2021-11-23 16:34:18 GMT 40.489391 -80.228088 0 48 0 -64
2021-11-23 16:34:16 GMT 40.489368 -80.228088 0 48 1 -64
2021-11-23 16:34:13 GMT 40.489380 -80.228081 0 48 1 -64
2021-11-23 16:34:12 GMT 40.489368 -80.228050 0 48 5 -64
2021-11-23 16:34:10 GMT 40.489410 -80.228088 0 48 1 -64
2021-11-23 16:34:07 GMT 40.489429 -80.228073 0 48 0 -64
2021-11-23 16:34:06 GMT 40.489422 -80.228081 0 48 0 -64
2021-11-23 16:34:05 GMT 40.489429 -80.228081 0 48 0 -64
2021-11-23 16:34:03 GMT 40.489441 -80.228081 0 48 1 -64
2021-11-23 16:34:02 GMT 40.489410 -80.228088 0 48 0 -64
2021-11-23 16:33:48 GMT 40.489410 -80.228088 0 48 0 -64
2021-11-23 16:33:45 GMT 40.489410 -80.228088 0 48 0 -64
2021-11-23 16:33:42 GMT 40.489422 -80.228088 0 48 0 -64
2021-11-23 16:33:38 GMT 40.489410 -80.228088 0 48 0 -64
2021-11-23 16:33:32 GMT 40.489410 -80.228088 0 48 0 -64
2021-11-23 16:33:29 GMT 40.489410 -80.228081 0 48 0 -64
2021-11-23 16:33:27 GMT 40.489422 -80.228081 0 48 0 -64
2021-11-23 16:33:26 GMT 40.489422 -80.228073 0 48 0 -64
2021-11-23 16:33:22 GMT 40.489441 -80.228073 0 48 0 -64
2021-11-23 16:33:21 GMT 40.489429 -80.228081 0 48 0 -64
2021-11-23 16:33:20 GMT 40.489429 -80.228073 0 48 0 -64
2021-11-23 16:33:17 GMT 40.489422 -80.228081 0 48 0 -64
2021-11-23 16:33:14 GMT 40.489429 -80.228073 0 48 0 -64
2021-11-23 16:33:12 GMT 40.489429 -80.228081 0 48 0 -64
2021-11-23 16:33:07 GMT 40.489429 -80.228073 0 48 0 -64
2021-11-23 16:33:05 GMT 40.489422 -80.228081 0 48 0 -64
2021-11-23 16:33:02 GMT 40.489422 -80.228073 0 48 0 -64
2021-11-23 16:33:00 GMT 40.489422 -80.228081 0 48 0 -64
2021-11-23 16:32:48 GMT 40.489410 -80.228081 0 48 0 -64
2021-11-23 16:32:44 GMT 40.489422 -80.228081 0 48 0 -64
2021-11-23 16:32:43 GMT 40.489410 -80.228081 0 48 0 -64
2021-11-23 16:32:38 GMT 40.489410 -80.228081 0 48 0 -64
2021-11-23 16:32:37 GMT 40.489410 -80.228088 0 48 0 -64
2021-11-23 16:32:33 GMT 40.489410 -80.228081 0 48 0 -64
2021-11-23 16:32:31 GMT 40.489410 -80.228088 0 48 0 -64
2021-11-23 16:32:24 GMT 40.489410 -80.228081 0 48 0 -64
2021-11-23 16:32:23 GMT 40.489399 -80.228081 0 48 0 -64
2021-11-23 16:32:21 GMT 40.489399 -80.228088 0 48 0 -64
2021-11-23 16:32:20 GMT 40.489410 -80.228088 0 48 0 -64
2021-11-23 16:32:18 GMT 40.489399 -80.228088 0 48 0 -64
2021-11-23 16:32:15 GMT 40.489410 -80.228088 0 48 0 -64
2021-11-23 16:32:13 GMT 40.489410 -80.228081 0 48 0 -64
2021-11-23 16:32:06 GMT 40.489422 -80.228081 0 48 0 -64
2021-11-23 16:32:03 GMT 40.489422 -80.228073 0 48 0 -64
2021-11-23 16:31:57 GMT 40.489422 -80.228081 0 48 0 -64
2021-11-23 16:31:56 GMT 40.489410 -80.228081 0 48 0 -64
2021-11-23 16:31:55 GMT 40.489410 -80.228081 0 48 0 -64
2021-11-23 16:31:52 GMT 40.489410 -80.228088 0 48 0 -64
2021-11-23 16:31:47 GMT 40.489399 -80.228088 0 48 0 -64
2021-11-23 16:31:41 GMT 40.489399 -80.228081 0 48 0 -64
2021-11-23 16:31:39 GMT 40.489410 -80.228081 0 48 0 -64
2021-11-23 16:31:38 GMT 40.489422 -80.228058 0 48 1 -64
2021-11-23 16:31:37 GMT 40.489410 -80.228081 0 48 0 -64
2021-11-23 16:31:31 GMT 40.489410 -80.228088 0 48 0 -64
2021-11-23 16:31:29 GMT 40.489410 -80.228088 0 48 0 -64
2021-11-23 16:31:28 GMT 40.489422 -80.228081 0 48 0 -64
2021-11-23 16:31:25 GMT 40.489429 -80.228073 0 48 0 -64
2021-11-23 16:31:12 GMT 40.489422 -80.228081 0 48 0 -64
2021-11-23 16:31:10 GMT 40.489422 -80.228081 0 48 0 -64
2021-11-23 16:31:08 GMT 40.489429 -80.228081 0 48 1 -64
2021-11-23 16:31:07 GMT 40.489429 -80.228088 0 48 1 -64
2021-11-23 16:31:04 GMT 40.489422 -80.228081 0 48 1 -64
2021-11-23 16:31:02 GMT 40.489410 -80.228058 0 48 0 -64
2021-11-23 16:31:00 GMT 40.489399 -80.228073 0 48 0 -64
2021-11-23 16:30:59 GMT 40.489399 -80.228081 0 48 0 -64
2021-11-23 16:30:57 GMT 40.489410 -80.228081 0 48 0 -64
2021-11-23 16:30:56 GMT 40.489422 -80.228081 0 48 0 -64
2021-11-23 16:30:53 GMT 40.489422 -80.228088 0 48 0 -64
2021-11-23 16:30:50 GMT 40.489410 -80.228088 0 48 0 -64
2021-11-23 16:30:49 GMT 40.489422 -80.228088 0 48 0 -64
2021-11-23 16:30:45 GMT 40.489410 -80.228088 0 48 0 -64
2021-11-23 16:30:43 GMT 40.489410 -80.228081 0 48 0 -64
2021-11-23 16:30:41 GMT 40.489399 -80.228088 0 48 0 -64
2021-11-23 16:30:38 GMT 40.489410 -80.228081 0 48 0 -64
2021-11-23 16:30:30 GMT 40.489399 -80.228088 0 48 0 -64
2021-11-23 16:30:29 GMT 40.489410 -80.228081 0 48 0 -64
2021-11-23 16:30:23 GMT 40.489410 -80.228081 0 48 0 -64
2021-11-23 16:30:16 GMT 40.489410 -80.228088 0 48 0 -64
2021-11-23 16:30:14 GMT 40.489399 -80.228081 0 48 0 -64
2021-11-23 16:30:05 GMT 40.489410 -80.228081 0 48 0 -64
2021-11-23 16:29:58 GMT 40.489410 -80.228081 0 48 0 -64
2021-11-23 16:29:47 GMT 40.489422 -80.228081 0 48 0 -64
2021-11-23 16:29:30 GMT 40.489410 -80.228081 0 48 0 -64
2021-11-23 16:29:27 GMT 40.489399 -80.228081 0 48 0 -64
2021-11-23 16:29:24 GMT 40.489399 -80.228088 0 48 0 -64
2021-11-23 16:29:22 GMT 40.489399 -80.228081 0 48 0 -64
2021-11-23 16:29:19 GMT 40.489410 -80.228081 0 48 0 -64
2021-11-23 16:29:18 GMT 40.489410 -80.228081 0 48 0 -64
2021-11-23 16:29:16 GMT 40.489399 -80.228081 0 48 0 -64
2021-11-23 16:29:15 GMT 40.489399 -80.228088 0 48 0 -64
2021-11-23 16:29:05 GMT 40.489410 -80.228088 0 48 0 -64
2021-11-23 16:29:00 GMT 40.489422 -80.228081 0 48 0 -64
2021-11-23 16:28:59 GMT 40.489422 -80.228081 0 48 0 -64
2021-11-23 16:28:45 GMT 40.489410 -80.228081 0 48 0 -64
2021-11-23 16:28:41 GMT 40.489399 -80.228081 0 48 0 -64
2021-11-23 16:28:39 GMT 40.489410 -80.228081 0 48 0 -64
2021-11-23 16:28:36 GMT 40.489410 -80.228088 0 48 0 -64
2021-11-23 16:28:33 GMT 40.489410 -80.228081 0 48 0 -64
2021-11-23 16:28:23 GMT 40.489422 -80.228081 0 48 0 -64
2021-11-23 16:28:22 GMT 40.489422 -80.228073 0 48 0 -64
2021-11-23 16:28:19 GMT 40.489422 -80.228073 0 48 0 -64
2021-11-23 16:28:16 GMT 40.489429 -80.228058 0 48 1 -64
2021-11-23 16:28:15 GMT 40.489422 -80.228081 0 48 0 -64
2021-11-23 16:28:13 GMT 40.489422 -80.228088 0 48 0 -64
2021-11-23 16:28:12 GMT 40.489422 -80.228081 0 48 0 -64
2021-11-23 16:28:10 GMT 40.489410 -80.228104 0 48 1 -64
2021-11-23 16:28:08 GMT 40.489422 -80.228073 0 48 0 -64
2021-11-23 16:28:06 GMT 40.489422 -80.228073 0 48 0 -64
2021-11-23 16:28:05 GMT 40.489422 -80.228058 0 48 0 -64
2021-11-23 16:28:03 GMT 40.489429 -80.228073 0 48 0 -64
2021-11-23 16:28:01 GMT 40.489429 -80.228058 0 48 1 -64
2021-11-23 16:27:59 GMT 40.489422 -80.228081 0 48 0 -64
2021-11-23 16:27:58 GMT 40.489441 -80.228073 0 48 1 -64
2021-11-23 16:27:56 GMT 40.489429 -80.228058 0 48 1 -64
2021-11-23 16:27:55 GMT 40.489429 -80.228073 0 48 1 -64
2021-11-23 16:27:54 GMT 40.489422 -80.228081 0 48 0 -64
2021-11-23 16:27:52 GMT 40.489410 -80.228081 0 48 0 -64
2021-11-23 16:27:50 GMT 40.489410 -80.228088 0 48 0 -64
2021-11-23 16:27:48 GMT 40.489410 -80.228104 0 48 0 -64
2021-11-23 16:27:46 GMT 40.489410 -80.228088 0 48 0 -64
2021-11-23 16:27:45 GMT 40.489399 -80.228088 0 48 1 -64
2021-11-23 16:27:42 GMT 40.489410 -80.228104 0 48 1 -64
2021-11-23 16:27:40 GMT 40.489410 -80.228088 0 48 1 -64
2021-11-23 16:27:39 GMT 40.489422 -80.228081 0 48 1 -64
2021-11-23 16:27:37 GMT 40.489429 -80.228073 0 48 1 -64
2021-11-23 16:27:36 GMT 40.489449 -80.228050 0 48 1 -64
2021-11-23 16:27:35 GMT 40.489429 -80.228050 0 57 1 -64
2021-11-23 16:27:34 GMT 40.489399 -80.228088 0 57 1 -64
2021-11-23 16:27:32 GMT 40.489399 -80.228081 0 57 1 -64
2021-11-23 16:27:28 GMT 40.489410 -80.228088 0 57 2 -64
2021-11-23 16:27:26 GMT 40.489429 -80.228058 0 57 1 -64
2021-11-23 16:27:25 GMT 40.489471 -80.228043 0 57 1 -64
2021-11-23 16:27:23 GMT 40.489460 -80.228050 0 57 1 -64
2021-11-23 16:27:22 GMT 40.489460 -80.228050 0 57 2 -64
2021-11-23 16:27:20 GMT 40.489460 -80.228058 0 57 2 -64
2021-11-23 16:27:19 GMT 40.489460 -80.228050 0 57 2 -64
2021-11-23 16:27:16 GMT 40.489441 -80.228073 0 59 3 -64
2021-11-23 16:27:15 GMT 40.489380 -80.228104 0 79 0 -64
2021-11-23 16:27:13 GMT 40.489380 -80.228111 0 79 0 -64
2021-11-23 16:27:12 GMT 40.489361 -80.228119 0 79 2 -64
2021-11-23 16:27:11 GMT 40.489368 -80.228119 0 79 1 -64
2021-11-23 16:27:08 GMT 40.489410 -80.228088 0 79 0 -64
2021-11-23 16:27:06 GMT 40.489410 -80.228081 0 79 0 -64
2021-11-23 16:27:05 GMT 40.489422 -80.228081 0 79 0 -64
2021-11-23 16:27:04 GMT 40.489422 -80.228081 0 79 0 -64
2021-11-23 16:27:02 GMT 40.489422 -80.228081 0 79 0 -64
2021-11-23 16:27:01 GMT 40.489429 -80.228081 0 79 0 -64
2021-11-23 16:26:58 GMT 40.489429 -80.228073 0 79 0 -64
2021-11-23 16:26:47 GMT 40.489422 -80.228073 0 79 0 -64
2021-11-23 16:26:42 GMT 40.489429 -80.228081 0 79 0 -64
2021-11-23 16:26:35 GMT 40.489429 -80.228081 0 79 0 -64
2021-11-23 16:26:28 GMT 40.489422 -80.228081 0 79 0 -64
2021-11-23 16:26:27 GMT 40.489429 -80.228073 0 79 1 -64
2021-11-23 16:26:26 GMT 40.489422 -80.228081 0 79 0 -64
2021-11-23 16:26:24 GMT 40.489410 -80.228081 0 79 0 -64
2021-11-23 16:26:23 GMT 40.489410 -80.228088 0 79 0 -64
2021-11-23 16:26:21 GMT 40.489399 -80.228088 0 79 1 -64
2021-11-23 16:26:19 GMT 40.489410 -80.228088 0 79 1 -64
2021-11-23 16:26:18 GMT 40.489422 -80.228088 0 79 1 -64
2021-11-23 16:26:17 GMT 40.489429 -80.228088 0 79 1 -64
2021-11-23 16:26:16 GMT 40.489429 -80.228058 0 79 0 -64
2021-11-23 16:26:13 GMT 40.489429 -80.228050 0 79 0 -64
2021-11-23 16:26:11 GMT 40.489429 -80.228058 0 79 0 -64
2021-11-23 16:26:09 GMT 40.489429 -80.228073 0 79 0 -64
2021-11-23 16:26:08 GMT 40.489441 -80.228073 0 79 1 -64
2021-11-23 16:26:05 GMT 40.489429 -80.228058 0 79 1 -64
2021-11-23 16:26:04 GMT 40.489422 -80.228081 0 79 0 -64
2021-11-23 16:26:02 GMT 40.489410 -80.228081 0 79 0 -64
2021-11-23 16:26:01 GMT 40.489410 -80.228088 0 79 0 -64
2021-11-23 16:25:58 GMT 40.489410 -80.228081 0 79 0 -64
2021-11-23 16:25:57 GMT 40.489422 -80.228081 0 79 0 -64
2021-11-23 16:25:54 GMT 40.489429 -80.228081 0 79 0 -64
2021-11-23 16:25:52 GMT 40.489429 -80.228081 0 79 0 -64
2021-11-23 16:25:51 GMT 40.489422 -80.228081 0 79 0 -64
2021-11-23 16:25:49 GMT 40.489429 -80.228081 0 79 0 -64
2021-11-23 16:25:48 GMT 40.489429 -80.228073 0 79 0 -64
2021-11-23 16:25:47 GMT 40.489422 -80.228073 0 79 0 -64
2021-11-23 16:25:45 GMT 40.489429 -80.228073 0 79 0 -64
2021-11-23 16:25:42 GMT 40.489422 -80.228081 0 79 0 -64
2021-11-23 16:25:41 GMT 40.489422 -80.228073 0 79 0 -64
2021-11-23 16:25:40 GMT 40.489422 -80.228073 0 79 1 -64
2021-11-23 16:25:38 GMT 40.489422 -80.228081 0 79 1 -64
2021-11-23 16:25:37 GMT 40.489422 -80.228081 0 79 1 -64
2021-11-23 16:25:35 GMT 40.489422 -80.228073 0 83 3 -64
2021-11-23 16:25:34 GMT 40.489410 -80.228104 0 81 6 -64
2021-11-23 16:25:32 GMT 40.489399 -80.228111 0 88 10 -64
2021-11-23 16:25:30 GMT 40.489399 -80.228210 0 91 14 -64
2021-11-23 16:25:29 GMT 40.489410 -80.228279 0 86 17 -64
2021-11-23 16:25:27 GMT 40.489410 -80.228477 0 90 23 -64
2021-11-23 16:25:26 GMT 40.489391 -80.228607 0 95 26 -64
2021-11-23 16:25:24 GMT 40.489422 -80.228859 0 91 37 -64
2021-11-23 16:25:23 GMT 40.489422 -80.229088 0 92 37 -64
2021-11-23 16:25:21 GMT 40.489449 -80.229530 0 90 42 -64
2021-11-23 16:25:20 GMT 40.489460 -80.229759 0 90 47 -64
2021-11-23 16:25:19 GMT 40.489471 -80.230301 0 91 52 -64
2021-11-23 16:25:17 GMT 40.489441 -80.230553 0 94 60 -64
2021-11-23 16:25:15 GMT 40.489498 -80.231262 875 92 67 -64
2021-11-23 16:25:14 GMT 40.489529 -80.231644 875 91 69 -64
2021-11-23 16:25:13 GMT 40.489559 -80.232437 875 90 81 -64
2021-11-23 16:25:11 GMT 40.489559 -80.232910 875 91 84 -64
2021-11-23 16:25:09 GMT 40.489559 -80.233902 875 92 98 -64
2021-11-23 16:25:08 GMT 40.489590 -80.234459 875 91 103 -64
2021-11-23 16:25:06 GMT 40.489609 -80.235657 875 91 112 -64
2021-11-23 16:25:05 GMT 40.489620 -80.236229 875 92 126 -64
2021-11-23 16:25:03 GMT 40.489670 -80.237732 875 91 133 -64
2021-11-23 16:25:02 GMT 40.489689 -80.238518 875 91 134 -64
2021-11-23 16:25:00 GMT 40.489719 -80.240128 875 91 136 64
2021-11-23 16:24:59 GMT 40.489731 -80.240921 875 92 140 64
2021-11-23 16:24:58 GMT 40.489769 -80.242607 875 92 141 64
2021-11-23 16:24:56 GMT 40.489799 -80.243462 900 92 142 64
2021-11-23 16:24:55 GMT 40.489830 -80.244308 900 92 142 64
2021-11-23 16:24:53 GMT 40.489880 -80.246033 950 92 142 64
2021-11-23 16:24:51 GMT 40.489929 -80.247757 975 91 141 -640
2021-11-23 16:24:50 GMT 40.489948 -80.248611 1,000 91 142 -640
2021-11-23 16:24:48 GMT 40.490002 -80.250320 1,000 91 142 -640
2021-11-23 16:24:46 GMT 40.490051 -80.252060 1,050 91 141 -640
2021-11-23 16:24:45 GMT 40.490059 -80.252922 1,050 91 141 -640
2021-11-23 16:24:44 GMT 40.490082 -80.253777 1,050 91 140 -640
2021-11-23 16:24:42 GMT 40.490120 -80.255478 1,075 91 140 -640
2021-11-23 16:24:41 GMT 40.490120 -80.256332 1,100 91 140 -640
2021-11-23 16:24:40 GMT 40.490131 -80.257179 1,125 91 140 -640
2021-11-23 16:24:38 GMT 40.490162 -80.258881 1,125 91 140 -640
2021-11-23 16:24:36 GMT 40.490211 -80.260559 1,150 91 141 -640
2021-11-23 16:24:35 GMT 40.490219 -80.261421 1,175 91 141 -640
2021-11-23 16:24:33 GMT 40.490250 -80.263138 1,200 92 141 -640
2021-11-23 16:24:32 GMT 40.490280 -80.263992 1,225 92 141 -640
2021-11-23 16:24:31 GMT 40.490330 -80.265709 1,250 92 140 -640
2021-11-23 16:24:29 GMT 40.490360 -80.266563 1,250 92 141 -640
2021-11-23 16:24:27 GMT 40.490429 -80.268227 1,275 92 142 -640
2021-11-23 16:24:26 GMT 40.490452 -80.269089 1,300 92 142 -640
2021-11-23 16:24:25 GMT 40.490459 -80.269958 1,325 92 142 -640
2021-11-23 16:24:23 GMT 40.490520 -80.271690 1,325 92 141 -640
2021-11-23 16:24:22 GMT 40.490540 -80.272552 1,350 92 141 -640
2021-11-23 16:24:20 GMT 40.490601 -80.274223 1,375 92 142 -640
2021-11-23 16:24:18 GMT 40.490662 -80.275917 1,400 91 144 -640
2021-11-23 16:24:17 GMT 40.490688 -80.277702 1,425 92 142 -640
2021-11-23 16:24:15 GMT 40.490711 -80.278572 1,450 92 142 -640
2021-11-23 16:24:14 GMT 40.490742 -80.279442 1,475 92 142 -640
2021-11-23 16:24:13 GMT 40.490799 -80.281143 1,475 91 142 -640
2021-11-23 16:24:11 GMT 40.490829 -80.281990 1,500 91 142 -640
2021-11-23 16:24:09 GMT 40.490891 -80.283730 1,525 91 141 -640
2021-11-23 16:24:08 GMT 40.490921 -80.285423 1,550 91 142 -640
2021-11-23 16:24:06 GMT 40.490952 -80.286247 1,575 90 143 -640
2021-11-23 16:24:05 GMT 40.490959 -80.287109 1,600 90 144 -640
2021-11-23 16:24:04 GMT 40.490971 -80.288849 1,625 90 144 -640
2021-11-23 16:24:02 GMT 40.490952 -80.289719 1,650 92 144 -640
2021-11-23 16:24:00 GMT 40.491001 -80.291481 1,675 92 143 0
2021-11-23 16:23:59 GMT 40.491089 -80.293221 1,675 88 142 0
2021-11-23 16:23:57 GMT 40.491089 -80.294037 1,700 88 143 0
2021-11-23 16:23:56 GMT 40.491070 -80.294907 1,700 88 143 0
2021-11-23 16:23:54 GMT 40.491032 -80.296638 1,725 88 143 0
2021-11-23 16:23:53 GMT 40.491001 -80.298363 1,750 88 144 0
2021-11-23 16:23:51 GMT 40.491001 -80.299210 1,750 88 145 0
2021-11-23 16:23:50 GMT 40.490978 -80.300102 1,750 88 144 0
2021-11-23 16:23:48 GMT 40.490952 -80.301842 1,775 87 145 0
2021-11-23 16:23:47 GMT 40.490910 -80.302719 1,775 87 145 0
2021-11-23 16:23:46 GMT 40.490871 -80.303596 1,800 88 145 0
2021-11-23 16:23:44 GMT 40.490810 -80.305367 1,825 88 143 0
2021-11-23 16:23:43 GMT 40.490799 -80.306252 1,825 88 142 0
2021-11-23 16:23:41 GMT 40.490829 -80.307961 1,825 85 142 0
2021-11-23 16:23:40 GMT 40.490791 -80.308792 1,825 85 143 0
2021-11-23 16:23:38 GMT 40.490681 -80.310562 1,825 86 142 0
2021-11-23 16:23:37 GMT 40.490631 -80.311417 1,850 86 142 32
2021-11-23 16:23:35 GMT 40.490528 -80.313148 1,850 86 141 -256
2021-11-23 16:23:34 GMT 40.490509 -80.314011 1,850 85 141 -256
2021-11-23 16:23:33 GMT 40.490440 -80.315727 1,875 84 140 -256
2021-11-23 16:23:31 GMT 40.490391 -80.316582 1,875 84 140 -256
2021-11-23 16:23:29 GMT 40.490311 -80.318291 1,900 83 140 -256
2021-11-23 16:23:28 GMT 40.490250 -80.319130 1,925 82 140 -256
2021-11-23 16:23:26 GMT 40.490089 -80.320808 1,925 82 140 -256
2021-11-23 16:23:25 GMT 40.490009 -80.321640 1,950 82 140 -256
2021-11-23 16:23:24 GMT 40.489929 -80.322456 1,950 82 141 -256
2021-11-23 16:23:22 GMT 40.489761 -80.324120 1,975 81 143 -256
2021-11-23 16:23:21 GMT 40.489670 -80.324928 1,975 81 145 -256
2021-11-23 16:23:19 GMT 40.489491 -80.326653 2,000 81 146 -256
2021-11-23 16:23:18 GMT 40.489269 -80.328407 2,000 82 145 -256
2021-11-23 16:23:16 GMT 40.489201 -80.329277 2,025 81 146 -256
2021-11-23 16:23:15 GMT 40.489101 -80.330223 2,025 81 142 -256
2021-11-23 16:23:14 GMT 40.488998 -80.331100 2,025 81 140 -256
2021-11-23 16:23:12 GMT 40.488838 -80.332764 2,050 79 143 -256
2021-11-23 16:23:11 GMT 40.488731 -80.333641 2,050 79 141 -256
2021-11-23 16:23:09 GMT 40.488571 -80.335342 2,075 76 140 -256
2021-11-23 16:23:08 GMT 40.488430 -80.336151 2,075 76 141 -256
2021-11-23 16:23:07 GMT 40.488281 -80.336990 2,100 75 141 -256
2021-11-23 16:23:05 GMT 40.487980 -80.338661 2,100 75 141 -256
2021-11-23 16:23:04 GMT 40.487820 -80.339531 2,100 75 139 -256
2021-11-23 16:23:03 GMT 40.487492 -80.341148 2,100 75 140 -256
2021-11-23 16:23:01 GMT 40.487160 -80.342812 2,125 75 139 0
2021-11-23 16:22:59 GMT 40.486992 -80.343597 2,125 76 140 0
2021-11-23 16:22:58 GMT 40.486820 -80.344421 2,125 76 140 0
2021-11-23 16:22:56 GMT 40.486401 -80.346893 2,150 75 140 0
2021-11-23 16:22:54 GMT 40.486240 -80.347717 2,150 75 140 0
2021-11-23 16:22:53 GMT 40.485901 -80.349403 2,175 76 139 0
2021-11-23 16:22:51 GMT 40.485580 -80.351021 2,200 76 140 0
2021-11-23 16:22:49 GMT 40.485432 -80.351883 2,225 76 137 0
2021-11-23 16:22:48 GMT 40.485310 -80.352638 2,225 76 141 0
2021-11-23 16:22:46 GMT 40.485008 -80.354187 2,250 76 148 0
2021-11-23 16:22:45 GMT 40.484852 -80.355026 2,275 76 150 0
2021-11-23 16:22:43 GMT 40.484501 -80.356781 2,300 76 150 0
2021-11-23 16:22:42 GMT 40.484348 -80.357643 2,300 76 151 0
2021-11-23 16:22:41 GMT 40.484009 -80.359444 2,325 76 150 0
2021-11-23 16:22:39 GMT 40.483841 -80.360359 2,350 75 148 0
2021-11-23 16:22:37 GMT 40.483490 -80.362038 2,400 76 152 0
2021-11-23 16:22:36 GMT 40.483299 -80.362930 2,400 77 152 0
2021-11-23 16:22:34 GMT 40.482990 -80.364761 2,450 77 150 0
2021-11-23 16:22:33 GMT 40.482681 -80.366417 2,475 77 157 0
2021-11-23 16:22:31 GMT 40.482510 -80.367348 2,500 77 157 0
2021-11-23 16:22:29 GMT 40.482201 -80.369186 2,550 78 158 0
2021-11-23 16:22:28 GMT 40.481899 -80.371040 2,600 78 159 0
2021-11-23 16:22:26 GMT 40.481739 -80.371964 2,625 78 160 0
2021-11-23 16:22:25 GMT 40.481590 -80.372910 2,650 78 160 0
2021-11-23 16:22:23 GMT 40.481281 -80.374840 2,725 78 157 0
2021-11-23 16:22:21 GMT 40.480980 -80.376694 2,900 78 159 0
2021-11-23 16:22:20 GMT 40.480820 -80.377602 2,900 78 159 0
2021-11-23 16:22:19 GMT 40.480572 -80.379402 3,000 78 166 0
2021-11-23 16:22:17 GMT 40.480419 -80.380379 3,000 78 166 256
2021-11-23 16:22:16 GMT 40.480301 -80.381317 3,000 77 171 256
2021-11-23 16:21:35 GMT 40.475960 -80.427475 3,350 85 209 -704
2021-11-23 16:21:30 GMT 40.475647 -80.433350 3,425 85 211 -896
2021-11-23 16:21:08 GMT 40.474144 -80.460999 3,775 86 210 192
2021-11-23 16:20:57 GMT 40.473541 -80.474289 3,775 86 208 320
2021-11-23 16:20:43 GMT 40.472580 -80.492493 3,750 85 221 -128
2021-11-23 16:20:36 GMT 40.472076 -80.502380 3,750 85 229 128
2021-11-23 16:20:26 GMT 40.471165 -80.517487 3,750 85 240 64
2021-11-23 16:20:17 GMT 40.470428 -80.530273 3,750 85 252 320
2021-11-23 16:20:06 GMT 40.469467 -80.548218 3,750 86 262 128
2021-11-23 16:19:55 GMT 40.468605 -80.563995 3,750 85 265 0
2021-11-23 16:19:44 GMT 40.467453 -80.581726 3,775 85 265 0
2021-11-23 16:19:34 GMT 40.466557 -80.597450 3,775 86 265 -448
2021-11-23 16:19:24 GMT 40.465759 -80.613953 3,825 86 267 -256
2021-11-23 16:19:15 GMT 40.464981 -80.630737 3,925 86 265 -1536
2021-11-23 16:19:04 GMT 40.464184 -80.646950 4,275 86 264 -2624
2021-11-23 16:18:54 GMT 40.463333 -80.664001 4,800 86 266 -3392
2021-11-23 16:18:43 GMT 40.462646 -80.680847 5,400 87 268 -3264
2021-11-23 16:18:32 GMT 40.461960 -80.697815 5,925 86 271 -3072
2021-11-23 16:18:22 GMT 40.460953 -80.715088 6,450 85 275 -3008
2021-11-23 16:18:11 GMT 40.459808 -80.732658 7,025 84 277 -3456
2021-11-23 16:18:02 GMT 40.458618 -80.749817 7,675 84 273 -4352
2021-11-23 16:17:50 GMT 40.457382 -80.767944 8,975 85 264 -4032
2021-11-23 16:17:41 GMT 40.456364 -80.783409 8,975 85 264 -1920
2021-11-23 16:17:28 GMT 40.455151 -80.802444 9,275 85 277 -1408
2021-11-23 16:17:19 GMT 40.452824 -80.837967 9,525 85 292 -1344
2021-11-23 16:17:08 GMT 40.452824 -80.837967 9,750 85 299 -768
2021-11-23 16:16:58 GMT 40.451569 -80.856445 9,750 84 300 64
2021-11-23 16:16:49 GMT 40.450264 -80.874916 9,750 84 299 0
2021-11-23 16:16:37 GMT 40.448914 -80.894897 9,775 85 300 -64
2021-11-23 16:16:28 GMT 40.447796 -80.912056 9,775 85 308 -128
2021-11-23 16:16:17 GMT 40.446579 -80.931396 9,775 85 319 -64
2021-11-23 16:16:06 GMT 40.445206 -80.953247 9,775 85 331 -384
2021-11-23 16:15:55 GMT 40.443794 -80.974792 9,975 85 335 -1600
2021-11-23 16:15:48 GMT 40.442642 -80.992004 10,300 85 336 -2432
2021-11-23 16:15:45 GMT 40.442444 -80.995018 10,300 85 336 -2432
2021-11-23 16:15:34 GMT 40.440903 -81.018982 10,850 85 336 -2624
2021-11-23 16:15:26 GMT 40.439835 -81.035530 11,525 87 341 -2112
2021-11-23 16:15:17 GMT 40.439465 -81.055382 11,500 93 347 -2176
2021-11-23 16:15:13 GMT 40.439789 -81.060623 11,750 97 352 -2240
2021-11-23 16:15:03 GMT 40.443562 -81.082596 12,000 108 362 -2432
2021-11-23 16:14:59 GMT 40.446026 -81.090836 12,150 117 370 -2176
2021-11-23 16:14:55 GMT 40.449463 -81.099854 12,325 119 371 -2112
2021-11-23 16:14:50 GMT 40.454594 -81.110374 12,500 126 377 -1984
2021-11-23 16:14:45 GMT 40.458504 -81.116867 12,800 136 384 -2112
2021-11-23 16:14:41 GMT 40.464787 -81.125359 12,800 136 384 -2112
2021-11-23 16:14:32 GMT 40.475590 -81.136597 13,100 145 389 -2368
2021-11-23 16:14:28 GMT 40.484482 -81.143921 13,325 150 391 -2304
2021-11-23 16:14:24 GMT 40.490204 -81.147583 13,450 156 392 -2304
2021-11-23 16:14:18 GMT 40.499561 -81.152077 13,650 163 393 -2176
2021-11-23 16:14:11 GMT 40.511353 -81.155396 13,875 188 391 -2112
2021-11-23 16:14:07 GMT 40.518631 -81.156189 14,000 179 394 -1920
2021-11-23 16:14:02 GMT 40.529434 -81.155701 14,200 188 391 -2112
2021-11-23 16:13:58 GMT 40.536339 -81.154259 14,325 193 389 -2176
2021-11-23 16:13:53 GMT 40.544952 -81.151184 14,525 199 387 -2368
2021-11-23 16:13:50 GMT 40.548294 -81.149597 14,600 202 385 -2432
2021-11-23 16:13:43 GMT 40.559738 -81.142090 14,925 214 376 -3008
2021-11-23 16:13:40 GMT 40.565155 -81.137154 15,125 218 372 -3072
2021-11-23 16:13:34 GMT 40.573208 -81.127541 15,525 223 365 -3200
2021-11-23 16:13:31 GMT 40.575397 -81.124298 15,725 233 352 -3648
2021-11-23 16:13:28 GMT 40.577816 -81.120239 15,725 233 352 -3648
2021-11-23 16:13:25 GMT 40.580654 -81.114685 16,100 264 312 -1216
2021-11-23 16:13:21 GMT 40.584045 -81.106201 16,225 248 330 -3264
2021-11-23 16:13:16 GMT 40.586708 -81.096893 16,475 255 321 -2624
2021-11-23 16:13:09 GMT 40.588661 -81.084785 16,675 264 312 -1216
2021-11-23 16:13:05 GMT 40.589081 -81.075378 16,750 272 307 -320
2021-11-23 16:13:02 GMT 40.588989 -81.070862 16,750 274 305 -128
2021-11-23 16:12:58 GMT 40.588615 -81.064621 16,750 275 305 0
2021-11-23 16:12:52 GMT 40.587845 -81.052429 16,750 275 305 0
2021-11-23 16:12:49 GMT 40.587387 -81.045776 16,750 275 305 64
2021-11-23 16:12:45 GMT 40.586884 -81.037659 16,750 275 305 0
2021-11-23 16:12:40 GMT 40.586380 -81.030273 16,750 275 305 0
2021-11-23 16:12:37 GMT 40.586014 -81.024536 16,750 275 305 0
2021-11-23 16:12:34 GMT 40.585693 -81.019348 16,750 275 305 0
2021-11-23 16:12:27 GMT 40.584846 -81.006439 16,750 275 305 -64
2021-11-23 16:12:21 GMT 40.584091 -80.994141 16,750 275 305 0
2021-11-23 16:12:17 GMT 40.583725 -80.988220 16,750 275 305 0
2021-11-23 16:12:09 GMT 40.582855 -80.973450 16,750 275 305 0
2021-11-23 16:12:06 GMT 40.582565 -80.968613 16,750 275 305 0
2021-11-23 16:12:00 GMT 40.581848 -80.956421 16,750 275 305 0
2021-11-23 16:11:57 GMT 40.581402 -80.948761 16,750 275 305 -64
2021-11-23 16:11:52 GMT 40.581028 -80.942085 16,750 275 305 0
2021-11-23 16:11:49 GMT 40.580658 -80.935791 16,750 275 305 0
2021-11-23 16:11:46 GMT 40.580338 -80.930542 16,750 275 306 0
2021-11-23 16:11:42 GMT 40.579926 -80.923096 16,750 275 306 0
2021-11-23 16:11:39 GMT 40.579586 -80.917488 16,750 275 306 0
2021-11-23 16:11:36 GMT 40.579239 -80.911194 16,750 275 307 -64
2021-11-23 16:11:29 GMT 40.578506 -80.898499 16,750 275 307 64
2021-11-23 16:11:24 GMT 40.577774 -80.886536 16,750 275 308 64
2021-11-23 16:11:17 GMT 40.577259 -80.877350 16,750 275 308 64
2021-11-23 16:11:14 GMT 40.576904 -80.871704 16,750 275 308 64
2021-11-23 16:11:10 GMT 40.576447 -80.863525 16,750 275 309 128
2021-11-23 16:11:07 GMT 40.576096 -80.857880 16,750 275 309 128
2021-11-23 16:11:03 GMT 40.575535 -80.847954 16,750 275 309 1088
2021-11-23 16:10:57 GMT 40.575115 -80.840401 16,700 275 309 960
2021-11-23 16:10:54 GMT 40.574707 -80.833252 16,625 275 308 1472
2021-11-23 16:10:48 GMT 40.574020 -80.821289 16,425 275 306 2240
2021-11-23 16:10:44 GMT 40.573563 -80.814026 16,275 275 306 2368
2021-11-23 16:10:36 GMT 40.572693 -80.799927 15,950 275 306 2304
2021-11-23 16:10:33 GMT 40.572323 -80.794266 15,850 275 306 2048
2021-11-23 16:10:30 GMT 40.572006 -80.788818 15,650 275 305 1856
2021-11-23 16:10:26 GMT 40.571068 -80.773735 15,575 275 304 1856
2021-11-23 16:10:23 GMT 40.571068 -80.773735 15,500 275 302 1984
2021-11-23 16:10:20 GMT 40.570816 -80.770325 15,450 276 301 2048
2021-11-23 16:10:15 GMT 40.570229 -80.762123 15,300 276 300 2176
2021-11-23 16:10:12 GMT 40.569809 -80.755981 15,150 276 299 2304
2021-11-23 16:10:05 GMT 40.568974 -80.744583 14,900 276 298 2624
2021-11-23 16:10:01 GMT 40.568367 -80.736717 14,700 276 298 2816
2021-11-23 16:09:58 GMT 40.567841 -80.729858 14,525 276 298 2624
2021-11-23 16:09:54 GMT 40.567291 -80.722595 14,350 276 298 2496
2021-11-23 16:09:51 GMT 40.566971 -80.718674 14,275 276 298 2432
2021-11-23 16:09:44 GMT 40.565964 -80.705505 14,000 276 296 2240
2021-11-23 16:09:40 GMT 40.565388 -80.698578 13,850 277 295 2304
2021-11-23 16:09:33 GMT 40.564457 -80.687279 13,600 277 293 2368
2021-11-23 16:09:29 GMT 40.562897 -80.669312 10,750 288 282 2432
2021-11-23 16:09:24 GMT 40.562897 -80.669312 13,200 278 291 2432
2021-11-23 16:09:19 GMT 40.562119 -80.661499 10,750 288 282 2432
2021-11-23 16:09:13 GMT 40.560825 -80.650757 12,750 281 287 2560
2021-11-23 16:09:10 GMT 40.559830 -80.644958 12,575 285 284 2624
2021-11-23 16:09:04 GMT 40.557755 -80.635529 11,975 288 283 2496
2021-11-23 16:08:59 GMT 40.553375 -80.616821 10,750 288 269 1728
2021-11-23 16:08:53 GMT 40.553375 -80.616821 11,875 287 282 2560
2021-11-23 16:08:49 GMT 40.551888 -80.610435 11,675 287 281 2752
2021-11-23 16:08:42 GMT 40.549438 -80.599792 11,400 287 281 2432
2021-11-23 16:08:38 GMT 40.548019 -80.593811 11,250 288 279 2240
2021-11-23 16:08:33 GMT 40.545975 -80.585091 11,075 288 275 1984
2021-11-23 16:08:28 GMT 40.544083 -80.577087 10,900 288 273 1920
2021-11-23 16:08:23 GMT 40.542110 -80.568611 10,750 288 266 1600
2021-11-23 16:08:18 GMT 40.540100 -80.560242 10,625 288 263 1600
2021-11-23 16:08:07 GMT 40.536530 -80.545105 10,275 288 255 2880
2021-11-23 16:08:00 GMT 40.533783 -80.533264 9,850 288 255 3008
2021-11-23 16:07:57 GMT 40.532913 -80.529724 9,750 288 255 3136
2021-11-23 16:07:49 GMT 40.529869 -80.517609 7,700 287 254 3872
2021-11-23 16:07:47 GMT 40.529160 -80.514671 7,700 287 254 3872
2021-11-23 16:07:45 GMT 40.528461 -80.511726 7,700 287 254 3872
2021-11-23 16:07:44 GMT 40.527748 -80.508797 7,700 287 254 3872
2021-11-23 16:07:42 GMT 40.527390 -80.507332 7,700 287 254 3872
2021-11-23 16:07:40 GMT 40.526680 -80.504387 7,700 287 254 3872
2021-11-23 16:07:39 GMT 40.526329 -80.502922 7,700 287 254 3872
2021-11-23 16:07:37 GMT 40.525620 -80.499977 7,700 287 254 3872
2021-11-23 16:07:36 GMT 40.525261 -80.498512 7,700 287 254 3872
2021-11-23 16:07:34 GMT 40.524551 -80.495567 7,700 287 254 3872
2021-11-23 16:07:33 GMT 40.524200 -80.494110 7,700 287 254 3872
2021-11-23 16:07:31 GMT 40.523479 -80.491173 7,700 287 254 3872
2021-11-23 16:07:30 GMT 40.523129 -80.489700 7,700 287 254 3872
2021-11-23 16:07:29 GMT 40.522419 -80.486763 7,700 287 254 3872
2021-11-23 16:07:27 GMT 40.522060 -80.485291 7,700 287 254 3872
2021-11-23 16:07:26 GMT 40.521351 -80.482353 7,700 287 254 3872
2021-11-23 16:07:24 GMT 40.521000 -80.480881 7,700 287 254 3872
2021-11-23 16:07:23 GMT 40.520290 -80.477951 7,700 287 254 3872
2021-11-23 16:07:21 GMT 40.519932 -80.476479 7,700 287 254 3872
2021-11-23 16:07:19 GMT 40.519218 -80.473541 7,700 287 254 3872
2021-11-23 16:07:18 GMT 40.518871 -80.472038 7,400 287 254 3872
2021-11-23 16:07:17 GMT 40.518162 -80.469109 7,400 287 254 3872
2021-11-23 16:07:15 GMT 40.517811 -80.467644 7,400 287 254 3872
2021-11-23 16:07:14 GMT 40.517448 -80.466179 7,400 287 254 768
2021-11-23 16:07:12 GMT 40.516659 -80.463364 6,900 287 255 768
2021-11-23 16:07:11 GMT 40.516312 -80.461884 6,900 287 255 768
2021-11-23 16:07:09 GMT 40.515480 -80.458992 6,900 286 255 768
2021-11-23 16:07:08 GMT 40.515141 -80.457512 6,900 286 255 768
2021-11-23 16:07:07 GMT 40.514462 -80.454552 6,900 286 255 768
2021-11-23 16:07:05 GMT 40.514111 -80.453072 6,900 286 255 768
2021-11-23 16:07:03 GMT 40.513119 -80.450256 6,600 284 256 768
2021-11-23 16:07:01 GMT 40.512482 -80.447273 6,600 284 256 768
2021-11-23 16:07:00 GMT 40.512169 -80.445778 6,600 284 256 768
2021-11-23 16:06:58 GMT 40.511131 -80.442963 6,300 282 256 768
2021-11-23 16:06:57 GMT 40.510849 -80.441452 6,300 282 256 768
2021-11-23 16:06:56 GMT 40.509560 -80.438652 6,000 279 256 768
2021-11-23 16:06:54 GMT 40.509338 -80.437134 6,000 279 256 768
2021-11-23 16:06:53 GMT 40.509109 -80.435600 6,000 279 256 768
2021-11-23 16:06:51 GMT 40.508659 -80.432549 6,000 279 256 768
2021-11-23 16:06:50 GMT 40.507381 -80.429657 5,800 276 256 768
2021-11-23 16:06:48 GMT 40.507229 -80.428131 5,800 276 256 768
2021-11-23 16:06:47 GMT 40.506920 -80.425049 5,800 276 256 768
2021-11-23 16:06:45 GMT 40.505989 -80.423561 5,500 273 254 768
2021-11-23 16:06:43 GMT 40.505798 -80.420479 5,500 273 254 768
2021-11-23 16:06:42 GMT 40.505711 -80.418938 5,500 273 254 768
2021-11-23 16:06:41 GMT 40.504810 -80.415649 5,200 271 250 768
2021-11-23 16:06:39 GMT 40.504768 -80.414131 5,200 271 250 768
2021-11-23 16:06:38 GMT 40.504700 -80.411102 5,200 271 250 768
2021-11-23 16:06:35 GMT 40.504200 -80.407661 4,800 270 244 768
2021-11-23 16:06:34 GMT 40.504200 -80.406181 4,800 270 244 768
2021-11-23 16:06:33 GMT 40.504200 -80.404701 4,800 270 244 768
2021-11-23 16:06:31 GMT 40.504108 -80.401451 4,800 269 239 -32
2021-11-23 16:06:30 GMT 40.504120 -80.399986 4,800 269 239 -32
2021-11-23 16:06:28 GMT 40.504139 -80.397087 4,800 269 239 -32
2021-11-23 16:06:27 GMT 40.504250 -80.395447 4,800 270 236 -32
2021-11-23 16:06:26 GMT 40.504250 -80.394020 4,800 270 236 -32
2021-11-23 16:06:24 GMT 40.504238 -80.391151 4,800 270 236 -32
2021-11-23 16:06:22 GMT 40.504318 -80.388290 4,750 270 237 -32
2021-11-23 16:06:21 GMT 40.504311 -80.386864 4,750 270 237 -32
2021-11-23 16:06:20 GMT 40.504230 -80.383888 4,700 270 235 -32
2021-11-23 16:06:18 GMT 40.504330 -80.382347 4,725 271 233 -32
2021-11-23 16:06:17 GMT 40.504311 -80.380943 4,725 271 233 -32
2021-11-23 16:06:15 GMT 40.504330 -80.377808 4,725 271 227 416
2021-11-23 16:06:14 GMT 40.504200 -80.376289 4,800 270 224 416
2021-11-23 16:06:12 GMT 40.504230 -80.373589 4,750 271 225 288
2021-11-23 16:06:11 GMT 40.504189 -80.372093 4,725 271 223 288
2021-11-23 16:06:10 GMT 40.504230 -80.369202 4,700 271 219 288
2021-11-23 16:06:08 GMT 40.504230 -80.367737 4,650 271 217 288
2021-11-23 16:06:07 GMT 40.504200 -80.366432 4,650 271 217 288
2021-11-23 16:06:06 GMT 40.504139 -80.365013 4,650 271 216 288
2021-11-23 16:06:04 GMT 40.504040 -80.362267 4,575 271 214 288
2021-11-23 16:06:03 GMT 40.504009 -80.360909 4,575 271 212 288
2021-11-23 16:06:01 GMT 40.504002 -80.358299 4,475 271 212 288
2021-11-23 16:06:00 GMT 40.504002 -80.357048 4,475 271 212 288
2021-11-23 16:05:58 GMT 40.503929 -80.354462 4,425 271 212 288
2021-11-23 16:05:56 GMT 40.503849 -80.350601 4,300 271 212 288
2021-11-23 16:05:54 GMT 40.503830 -80.349312 4,275 271 212 288
2021-11-23 16:05:53 GMT 40.503792 -80.346741 4,200 271 212 288
2021-11-23 16:05:51 GMT 40.503792 -80.345398 4,100 271 210 288
2021-11-23 16:05:49 GMT 40.503750 -80.342857 4,075 271 210 288
2021-11-23 16:05:48 GMT 40.503731 -80.341553 3,800 271 208 288
2021-11-23 16:05:47 GMT 40.503689 -80.338928 3,800 271 205 288
2021-11-23 16:05:45 GMT 40.503681 -80.337723 3,800 271 206 288
2021-11-23 16:05:43 GMT 40.503632 -80.335167 3,700 271 203 288
2021-11-23 16:05:42 GMT 40.503620 -80.334007 3,600 271 207 288
2021-11-23 16:05:40 GMT 40.503571 -80.331467 3,575 270 207 288
2021-11-23 16:05:39 GMT 40.503551 -80.330162 3,525 270 204 288
2021-11-23 16:05:37 GMT 40.503540 -80.327721 3,425 270 206 288
2021-11-23 16:05:36 GMT 40.503521 -80.326431 3,400 270 204 288
2021-11-23 16:05:34 GMT 40.503510 -80.323914 3,300 270 202 288
2021-11-23 16:05:33 GMT 40.503521 -80.322693 3,275 270 202 288
2021-11-23 16:05:31 GMT 40.503502 -80.320190 3,225 270 198 288
2021-11-23 16:05:29 GMT 40.503448 -80.317802 3,175 270 200 288
2021-11-23 16:05:28 GMT 40.503448 -80.316582 3,175 270 198 288
2021-11-23 16:05:27 GMT 40.503441 -80.314133 3,125 270 194 288
2021-11-23 16:05:25 GMT 40.503399 -80.312920 3,125 270 191 288
2021-11-23 16:05:24 GMT 40.503391 -80.311691 3,125 270 186 288
2021-11-23 16:05:22 GMT 40.503399 -80.309372 3,100 270 181 288
2021-11-23 16:05:21 GMT 40.503422 -80.308197 3,075 271 175 288
2021-11-23 16:05:20 GMT 40.503361 -80.305946 3,100 270 172 288
2021-11-23 16:05:18 GMT 40.503349 -80.304909 3,050 270 172 288
2021-11-23 16:05:17 GMT 40.503330 -80.302803 3,050 269 170 288
2021-11-23 16:05:15 GMT 40.503361 -80.301788 3,025 270 171 288
2021-11-23 16:05:14 GMT 40.503349 -80.300774 3,000 270 172 288
2021-11-23 16:05:12 GMT 40.503349 -80.298531 2,975 270 158 -64
2021-11-23 16:05:11 GMT 40.503361 -80.297493 2,975 270 155 -64
2021-11-23 16:05:10 GMT 40.503361 -80.295631 2,950 270 156 -64
2021-11-23 16:05:08 GMT 40.503368 -80.294724 2,925 271 157 -64
2021-11-23 16:05:06 GMT 40.503361 -80.292770 2,875 271 155 -64
2021-11-23 16:05:05 GMT 40.503330 -80.291832 2,875 271 155 -64
2021-11-23 16:05:04 GMT 40.503319 -80.290932 2,850 271 157 -64
2021-11-23 16:05:02 GMT 40.503311 -80.289131 2,775 272 164 -64
2021-11-23 16:05:01 GMT 40.503159 -80.287628 2,725 271 151 -64
2021-11-23 16:05:00 GMT 40.503132 -80.286293 2,725 271 140 -64
2021-11-23 16:04:58 GMT 40.503101 -80.284492 2,650 272 138 -64
2021-11-23 16:04:57 GMT 40.503078 -80.283638 2,625 272 138 -64
2021-11-23 16:04:55 GMT 40.503010 -80.281799 2,525 272 134 -64
2021-11-23 16:04:54 GMT 40.502991 -80.280998 2,500 272 134 -64
2021-11-23 16:04:52 GMT 40.502892 -80.279266 2,400 272 131 -64
2021-11-23 16:04:51 GMT 40.502838 -80.278374 2,375 271 129 -64
2021-11-23 16:04:50 GMT 40.502789 -80.276802 2,275 271 128 -64
2021-11-23 16:04:48 GMT 40.502789 -80.276031 2,250 271 129 -64
2021-11-23 16:04:46 GMT 40.502708 -80.274452 2,175 271 128 -64
2021-11-23 16:04:44 GMT 40.502750 -80.272926 2,100 273 130 -64
2021-11-23 16:04:42 GMT 40.502670 -80.271317 2,025 272 126 -64
2021-11-23 16:04:41 GMT 40.502590 -80.270599 1,925 269 132 -64
2021-11-23 16:04:40 GMT 40.502621 -80.268990 1,900 273 134 -64
2021-11-23 16:04:38 GMT 40.502579 -80.268188 1,850 274 135 -64
2021-11-23 16:04:37 GMT 40.502529 -80.267380 1,825 273 135 -64
2021-11-23 16:04:36 GMT 40.502441 -80.265709 1,700 273 132 -64
2021-11-23 16:04:34 GMT 40.502411 -80.264923 1,650 273 133 -64
2021-11-23 16:04:32 GMT 40.502319 -80.263329 1,600 273 134 -64
2021-11-23 16:04:30 GMT 40.502209 -80.260902 1,450 273 136 -64
2021-11-23 16:04:28 GMT 40.502159 -80.260094 1,400 273 136 -64
2021-11-23 16:04:26 GMT 40.502090 -80.258438 1,300 273 137 -64
2021-11-23 16:04:25 GMT 40.502060 -80.257622 1,250 272 138 -64
2021-11-23 16:04:24 GMT 40.501980 -80.255943 1,150 272 139 -64
2021-11-23 16:04:22 GMT 40.501949 -80.255096 1,125 272 140 -64
2021-11-23 16:04:21 GMT 40.501888 -80.253403 1,025 271 140 -64
2021-11-23 16:04:19 GMT 40.501869 -80.252579 975 271 143 -64
2021-11-23 16:04:18 GMT 40.501831 -80.251694 950 271 139 -64
2021-11-23 16:04:16 GMT 40.501801 -80.249992 900 271 137 -64
2021-11-23 16:04:15 GMT 40.501789 -80.249153 900 272 136 -64
2021-11-23 16:04:14 GMT 40.501789 -80.248306 900 272 134 96
2021-11-23 16:04:11 GMT 40.501652 -80.245071 900 271 119 320
2021-11-23 16:04:09 GMT 40.501629 -80.244308 0 272 114 -96
2021-11-23 16:04:08 GMT 40.501621 -80.243591 0 272 111 -32
2021-11-23 16:04:06 GMT 40.501579 -80.242233 0 271 107 -32
2021-11-23 16:04:05 GMT 40.501549 -80.240921 0 271 97 -32
2021-11-23 16:04:03 GMT 40.501530 -80.240280 0 271 90 384
2021-11-23 16:04:01 GMT 40.501511 -80.239166 0 272 83 384
2021-11-23 16:04:00 GMT 40.501492 -80.238632 0 271 78 384
2021-11-23 16:03:58 GMT 40.501469 -80.237648 0 271 68 32
2021-11-23 16:03:57 GMT 40.501461 -80.237221 0 272 65 32
2021-11-23 16:03:56 GMT 40.501461 -80.236801 0 273 61 32
2021-11-23 16:03:54 GMT 40.501411 -80.236031 0 271 47 -672
2021-11-23 16:03:53 GMT 40.501400 -80.235733 0 270 45 -672
2021-11-23 16:03:51 GMT 40.501400 -80.235138 0 273 34
2021-11-23 16:03:50 GMT 40.501400 -80.234879 0 276 26
2021-11-23 16:03:48 GMT 40.501369 -80.234573 0 275 21
2021-11-23 16:03:47 GMT 40.501362 -80.234428 0 275 17
2021-11-23 16:03:46 GMT 40.501369 -80.234200 0 302 14
2021-11-23 16:03:44 GMT 40.501339 -80.234108 0 308 13
2021-11-23 16:03:42 GMT 40.501270 -80.233994 0 312 13
2021-11-23 16:03:41 GMT 40.501202 -80.233833 0 334 9
2021-11-23 16:03:39 GMT 40.501122 -80.233757 0 339 8
2021-11-23 16:03:37 GMT 40.501080 -80.233742 0 342 7
2021-11-23 16:03:35 GMT 40.501019 -80.233688 0 352 7
2021-11-23 16:03:34 GMT 40.500992 -80.233673 0 358 8
2021-11-23 16:03:33 GMT 40.500919 -80.233643 0 5 7
2021-11-23 16:03:31 GMT 40.500889 -80.233643 0 6 8
2021-11-23 16:03:30 GMT 40.500820 -80.233650 0 3 7
2021-11-23 16:03:28 GMT 40.500790 -80.233673 0 359 7
2021-11-23 16:03:26 GMT 40.500710 -80.233681 0 1 6
2021-11-23 16:03:25 GMT 40.500671 -80.233658 0 6 5
2021-11-23 16:03:24 GMT 40.500648 -80.233673 0 7 5
2021-11-23 16:03:22 GMT 40.500591 -80.233681 0 24 4
2021-11-23 16:03:21 GMT 40.500561 -80.233681 0 48 4
2021-11-23 16:03:20 GMT 40.500511 -80.233681 0 62 3
2021-11-23 16:03:18 GMT 40.500481 -80.233688 0 62 0
2021-11-23 16:03:16 GMT 40.500469 -80.233688 0 62 0
2021-11-23 16:03:13 GMT 40.500401 -80.233688 0 62 0
2021-11-23 16:03:10 GMT 40.500401 -80.233688 0 62 0
2021-11-23 16:03:09 GMT 40.500389 -80.233688 0 62 0
2021-11-23 16:03:06 GMT 40.500401 -80.233688 0 62 0
2021-11-23 16:03:05 GMT 40.500389 -80.233688 0 62 0
2021-11-23 16:03:03 GMT 40.500401 -80.233681 0 62 0
2021-11-23 16:03:02 GMT 40.500389 -80.233673 0 62 0
2021-11-23 16:03:01 GMT 40.500401 -80.233673 0 62 0
2021-11-23 16:02:57 GMT 40.500389 -80.233688 0 62 0
2021-11-23 16:02:56 GMT 40.500389 -80.233704 0 62 0
2021-11-23 16:02:54 GMT 40.500389 -80.233688 0 62 0
2021-11-23 16:02:53 GMT 40.500381 -80.233704 0 62 1
2021-11-23 16:02:51 GMT 40.500401 -80.233688 0 62 0
2021-11-23 16:02:50 GMT 40.500401 -80.233681 0 62 0
2021-11-23 16:02:44 GMT 40.500401 -80.233681 0 62 0
2021-11-23 16:02:33 GMT 40.500401 -80.233681 0 62 0
2021-11-23 16:02:31 GMT 40.500401 -80.233688 0 62 0
2021-11-23 16:02:23 GMT 40.500389 -80.233688 0 62 0
2021-11-23 16:02:21 GMT 40.500389 -80.233681 0 62 0
2021-11-23 16:02:16 GMT 40.500389 -80.233688 0 62 0
2021-11-23 16:02:14 GMT 40.500389 -80.233688 0 62 0
2021-11-23 16:02:06 GMT 40.500389 -80.233688 0 62 0
2021-11-23 16:02:03 GMT 40.500401 -80.233681 0 62 0
2021-11-23 16:01:52 GMT 40.500401 -80.233681 0 62 0
2021-11-23 16:01:48 GMT 40.500389 -80.233681 0 62 0
2021-11-23 16:01:44 GMT 40.500401 -80.233673 0 62 0
2021-11-23 16:01:41 GMT 40.500401 -80.233681 0 62 0
2021-11-23 16:01:38 GMT 40.500401 -80.233688 0 62 0
2021-11-23 16:01:37 GMT 40.500401 -80.233681 0 62 0
2021-11-23 16:01:35 GMT 40.500401 -80.233688 0 62 0
2021-11-23 16:01:33 GMT 40.500389 -80.233688 0 62 0
2021-11-23 16:01:28 GMT 40.500401 -80.233681 0 62 0
2021-11-23 16:01:26 GMT 40.500401 -80.233688 0 62 0
2021-11-23 16:01:24 GMT 40.500401 -80.233704 0 62 0
2021-11-23 16:01:23 GMT 40.500389 -80.233704 0 62 0
2021-11-23 16:01:22 GMT 40.500401 -80.233704 0 62 0
2021-11-23 16:01:19 GMT 40.500389 -80.233688 0 62 0
2021-11-23 16:01:17 GMT 40.500389 -80.233681 0 62 0
2021-11-23 16:01:15 GMT 40.500389 -80.233673 0 62 0
2021-11-23 16:01:12 GMT 40.500401 -80.233688 0 62 1
2021-11-23 16:01:10 GMT 40.500408 -80.233688 0 62 1
2021-11-23 16:01:09 GMT 40.500408 -80.233681 0 62 2
2021-11-23 16:01:07 GMT 40.500389 -80.233688 0 62 2
2021-11-23 16:01:06 GMT 40.500389 -80.233681 0 62 2
2021-11-23 16:01:05 GMT 40.500370 -80.233681 0 62 2
2021-11-23 16:01:03 GMT 40.500359 -80.233673 0 62 2
2021-11-23 16:01:02 GMT 40.500340 -80.233658 0 62 3
2021-11-23 16:00:59 GMT 40.500309 -80.233658 0 70 3
2021-11-23 16:00:58 GMT 40.500301 -80.233650 0 80 4
2021-11-23 16:00:56 GMT 40.500278 -80.233688 0 89 5
2021-11-23 16:00:55 GMT 40.500278 -80.233704 0 89 6
2021-11-23 16:00:53 GMT 40.500278 -80.233749 0 89 7
2021-11-23 16:00:52 GMT 40.500278 -80.233788 0 90 8
2021-11-23 16:00:51 GMT 40.500271 -80.233833 0 91 8
2021-11-23 16:00:49 GMT 40.500271 -80.233917 0 92 9
2021-11-23 16:00:48 GMT 40.500278 -80.234009 0 92 9
2021-11-23 16:00:46 GMT 40.500278 -80.234062 0 92 9
2021-11-23 16:00:45 GMT 40.500278 -80.234108 0 91 10
2021-11-23 16:00:44 GMT 40.500290 -80.234169 0 91 10
2021-11-23 16:00:43 GMT 40.500290 -80.234222 0 91 10
2021-11-23 16:00:41 GMT 40.500290 -80.234329 0 92 11
2021-11-23 16:00:39 GMT 40.500301 -80.234459 0 89 11
2021-11-23 16:00:38 GMT 40.500301 -80.234528 0 90 11
2021-11-23 16:00:36 GMT 40.500301 -80.234657 0 91 11
2021-11-23 16:00:34 GMT 40.500301 -80.234787 0 91 10
2021-11-23 16:00:33 GMT 40.500301 -80.234848 0 91 10
2021-11-23 16:00:31 GMT 40.500301 -80.234978 0 91 10
2021-11-23 16:00:30 GMT 40.500309 -80.235031 0 91 11
2021-11-23 16:00:28 GMT 40.500309 -80.235153 0 92 12
2021-11-23 16:00:27 GMT 40.500309 -80.235222 0 92 12
2021-11-23 16:00:26 GMT 40.500309 -80.235291 0 92 12
2021-11-23 16:00:24 GMT 40.500309 -80.235428 0 92 12
2021-11-23 16:00:23 GMT 40.500320 -80.235512 0 92 12
2021-11-23 16:00:22 GMT 40.500320 -80.235580 0 92 12
2021-11-23 16:00:20 GMT 40.500332 -80.235733 0 91 12
2021-11-23 16:00:19 GMT 40.500332 -80.235802 0 91 12
2021-11-23 16:00:17 GMT 40.500332 -80.235939 0 91 12
2021-11-23 16:00:16 GMT 40.500332 -80.236008 0 91 11
2021-11-23 16:00:15 GMT 40.500332 -80.236153 0 93 12
2021-11-23 16:00:13 GMT 40.500332 -80.236221 0 92 12
2021-11-23 16:00:11 GMT 40.500340 -80.236351 0 92 12
2021-11-23 16:00:10 GMT 40.500340 -80.236427 0 92 12
2021-11-23 16:00:08 GMT 40.500351 -80.236580 0 91 12
2021-11-23 16:00:07 GMT 40.500351 -80.236649 0 91 12
2021-11-23 16:00:06 GMT 40.500359 -80.236809 0 92 12
2021-11-23 16:00:04 GMT 40.500351 -80.236877 0 93 12
2021-11-23 16:00:02 GMT 40.500359 -80.237022 0 92 12
2021-11-23 16:00:01 GMT 40.500359 -80.237099 0 92 12
2021-11-23 16:00:00 GMT 40.500381 -80.237259 0 90 11
2021-11-23 15:59:58 GMT 40.500370 -80.237320 0 91 11
2021-11-23 15:59:57 GMT 40.500370 -80.237389 0 91 10
2021-11-23 15:59:55 GMT 40.500381 -80.237534 0 90 10
2021-11-23 15:59:54 GMT 40.500381 -80.237587 0 91 10
2021-11-23 15:59:53 GMT 40.500381 -80.237640 0 91 10
2021-11-23 15:59:51 GMT 40.500381 -80.237770 0 90 10
2021-11-23 15:59:50 GMT 40.500381 -80.237831 0 89 9
2021-11-23 15:59:49 GMT 40.500389 -80.237938 0 87 9
2021-11-23 15:59:47 GMT 40.500381 -80.238007 0 85 9
2021-11-23 15:59:46 GMT 40.500389 -80.238060 0 80 9
2021-11-23 15:59:44 GMT 40.500401 -80.238167 0 66 9
2021-11-23 15:59:43 GMT 40.500389 -80.238228 0 60 9
2021-11-23 15:59:42 GMT 40.500381 -80.238319 0 50 9
2021-11-23 15:59:40 GMT 40.500370 -80.238373 0 46 10
2021-11-23 15:59:39 GMT 40.500332 -80.238419 0 43 9
2021-11-23 15:59:37 GMT 40.500290 -80.238510 0 29 9
2021-11-23 15:59:36 GMT 40.500229 -80.238602 0 8 10
2021-11-23 15:59:33 GMT 40.500149 -80.238647 0 2 10
2021-11-23 15:59:32 GMT 40.500099 -80.238647 0 1 11
2021-11-23 15:59:31 GMT 40.500061 -80.238663 0 0 11
2021-11-23 15:59:29 GMT 40.499962 -80.238663 0 0 12
2021-11-23 15:59:28 GMT 40.499859 -80.238663 0 2 13
2021-11-23 15:59:26 GMT 40.499809 -80.238663 0 2 13
2021-11-23 15:59:25 GMT 40.499760 -80.238663 0 1 13
2021-11-23 15:59:23 GMT 40.499641 -80.238670 0 0 14
2021-11-23 15:59:22 GMT 40.499580 -80.238670 0 0 14
2021-11-23 15:59:21 GMT 40.499519 -80.238678 0 0 15
2021-11-23 15:59:20 GMT 40.499390 -80.238670 0 2 15
2021-11-23 15:59:18 GMT 40.499321 -80.238670 0 2 15
2021-11-23 15:59:17 GMT 40.499180 -80.238678 0 2 15
2021-11-23 15:59:15 GMT 40.499100 -80.238678 0 2 14
2021-11-23 15:59:13 GMT 40.498970 -80.238701 0 1 14
2021-11-23 15:59:12 GMT 40.498901 -80.238701 0 1 14
2021-11-23 15:59:11 GMT 40.498772 -80.238693 0 3 14
2021-11-23 15:59:09 GMT 40.498711 -80.238693 0 3 14
2021-11-23 15:59:08 GMT 40.498650 -80.238701 0 3 14
2021-11-23 15:59:07 GMT 40.498520 -80.238724 0 2 15
2021-11-23 15:59:05 GMT 40.498451 -80.238724 0 2 15
2021-11-23 15:59:04 GMT 40.498379 -80.238724 0 2 15
2021-11-23 15:59:03 GMT 40.498241 -80.238739 0 0 14
2021-11-23 15:59:01 GMT 40.498169 -80.238747 0 0 14
2021-11-23 15:59:00 GMT 40.498032 -80.238739 0 1 13
2021-11-23 15:58:58 GMT 40.497971 -80.238747 0 0 13
2021-11-23 15:58:56 GMT 40.497841 -80.238747 0 4 12
2021-11-23 15:58:55 GMT 40.497791 -80.238731 0 2 13
2021-11-23 15:58:54 GMT 40.497730 -80.238770 0 0 13
2021-11-23 15:58:52 GMT 40.497608 -80.238762 0 2 13
2021-11-23 15:58:51 GMT 40.497551 -80.238762 0 3 13
2021-11-23 15:58:50 GMT 40.497429 -80.238739 0 17 12
2021-11-23 15:58:48 GMT 40.497372 -80.238762 0 22 11
2021-11-23 15:58:47 GMT 40.497269 -80.238777 0 34 15
2021-11-23 15:58:45 GMT 40.497200 -80.238853 0 41 12
2021-11-23 15:58:44 GMT 40.497089 -80.238930 0 64 11
2021-11-23 15:58:42 GMT 40.497009 -80.238983 0 89 11
2021-11-23 15:58:41 GMT 40.497002 -80.239052 0 91 11
2021-11-23 15:58:39 GMT 40.497002 -80.239189 0 93 11
2021-11-23 15:58:38 GMT 40.497002 -80.239250 0 94 11
2021-11-23 15:58:36 GMT 40.497009 -80.239380 0 92 11
2021-11-23 15:58:35 GMT 40.497021 -80.239464 0 90 11
2021-11-23 15:58:34 GMT 40.497028 -80.239594 0 89 10
2021-11-23 15:58:32 GMT 40.497028 -80.239662 0 89 10
2021-11-23 15:58:31 GMT 40.497021 -80.239792 0 90 9
2021-11-23 15:58:29 GMT 40.497028 -80.239861 0 90 9
2021-11-23 15:58:28 GMT 40.497021 -80.239952 0 93 10
2021-11-23 15:58:26 GMT 40.497009 -80.240013 0 95 11
2021-11-23 15:58:25 GMT 40.497028 -80.240120 0 92 12
2021-11-23 15:58:23 GMT 40.497040 -80.240181 0 91 12
2021-11-23 15:58:22 GMT 40.497040 -80.240318 0 91 13
2021-11-23 15:58:20 GMT 40.497040 -80.240387 0 91 13
2021-11-23 15:58:19 GMT 40.497040 -80.240463 0 91 14
2021-11-23 15:58:17 GMT 40.497051 -80.240623 0 91 14
2021-11-23 15:58:15 GMT 40.497051 -80.240822 0 94 12
2021-11-23 15:58:14 GMT 40.497040 -80.240891 0 94 13
2021-11-23 15:58:13 GMT 40.497059 -80.241028 0 93 14
2021-11-23 15:58:11 GMT 40.497059 -80.241119 0 92 13
2021-11-23 15:58:10 GMT 40.497082 -80.241287 0 91 13
2021-11-23 15:58:08 GMT 40.497070 -80.241371 0 91 13
2021-11-23 15:58:07 GMT 40.497082 -80.241447 0 90 13
2021-11-23 15:58:05 GMT 40.497101 -80.241600 0 85 13
2021-11-23 15:58:04 GMT 40.497101 -80.241692 0 85 12
2021-11-23 15:58:03 GMT 40.497101 -80.241760 0 85 12
2021-11-23 15:58:01 GMT 40.497082 -80.241920 0 83 11
2021-11-23 15:57:59 GMT 40.497082 -80.242043 0 84 12
2021-11-23 15:57:58 GMT 40.497089 -80.242157 0 65 10
2021-11-23 15:57:56 GMT 40.497082 -80.242271 0 59 11
2021-11-23 15:57:55 GMT 40.497070 -80.242340 0 54 10
2021-11-23 15:57:54 GMT 40.497051 -80.242439 0 50 11
2021-11-23 15:57:52 GMT 40.497009 -80.242500 0 48 11
2021-11-23 15:57:51 GMT 40.496979 -80.242561 0 46 11
2021-11-23 15:57:49 GMT 40.496910 -80.242668 0 49 10
2021-11-23 15:57:48 GMT 40.496880 -80.242691 0 53 11
2021-11-23 15:57:46 GMT 40.496769 -80.242867 0 46 9
2021-11-23 15:57:44 GMT 40.496750 -80.242928 0 41 8
2021-11-23 15:57:43 GMT 40.496712 -80.243019 0 42 8
2021-11-23 15:57:41 GMT 40.496681 -80.243042 0 46 8
2021-11-23 15:57:39 GMT 40.496601 -80.243088 0 53 8
2021-11-23 15:57:38 GMT 40.496571 -80.243134 0 53 8
2021-11-23 15:57:36 GMT 40.496490 -80.243248 0 54 5
2021-11-23 15:57:35 GMT 40.496471 -80.243271 0 54 5
2021-11-23 15:57:34 GMT 40.496441 -80.243317 0 54 5
2021-11-23 15:57:32 GMT 40.496429 -80.243347 0 55 5
2021-11-23 15:57:31 GMT 40.496422 -80.243362 0 55 6
2021-11-23 15:57:29 GMT 40.496380 -80.243446 0 46 4
2021-11-23 15:57:28 GMT 40.496349 -80.243500 0 46 4
2021-11-23 15:57:26 GMT 40.496342 -80.243523 0 46 4
2021-11-23 15:57:25 GMT 40.496288 -80.243561 0 49 3
2021-11-23 15:57:23 GMT 40.496281 -80.243584 0 49 3
2021-11-23 15:57:21 GMT 40.496269 -80.243607 0 49 2
2021-11-23 15:57:20 GMT 40.496281 -80.243652 0 49 3
2021-11-23 15:57:19 GMT 40.496269 -80.243660 0 49 3
2021-11-23 15:57:17 GMT 40.496250 -80.243599 0 57 6
2021-11-23 15:57:16 GMT 40.496239 -80.243622 0 63 6
2021-11-23 15:57:14 GMT 40.496181 -80.243668 0 74 3
2021-11-23 15:57:12 GMT 40.496159 -80.243713 0 74 3
2021-11-23 15:57:11 GMT 40.496140 -80.243698 0 76 4
2021-11-23 15:57:01 GMT 40.496078 -80.243736 0 130 0
2021-11-23 15:56:59 GMT 40.496090 -80.243736 0 130 0
2021-11-23 15:56:55 GMT 40.496090 -80.243752 0 130 0
2021-11-23 15:56:52 GMT 40.496109 -80.243767 0 130 0
2021-11-23 15:56:50 GMT 40.496101 -80.243767 0 130 0
2021-11-23 15:56:48 GMT 40.496120 -80.243828 0 130 3
2021-11-23 15:56:47 GMT 40.496109 -80.243813 0 130 3
2021-11-23 15:56:46 GMT 40.496090 -80.243736 0 130 0
2021-11-23 15:56:42 GMT 40.496078 -80.243736 0 130 0
2021-11-23 15:56:41 GMT 40.496078 -80.243752 0 130 0
2021-11-23 15:56:39 GMT 40.496071 -80.243759 0 130 1
2021-11-23 15:56:37 GMT 40.496078 -80.243752 0 130 1
2021-11-23 15:56:35 GMT 40.496078 -80.243759 0 130 1
2021-11-23 15:56:34 GMT 40.496109 -80.243759 0 130 1
2021-11-23 15:56:32 GMT 40.496109 -80.243752 0 130 1
2021-11-23 15:56:30 GMT 40.496090 -80.243721 0 130 1
2021-11-23 15:56:29 GMT 40.496109 -80.243683 0 130 3
2021-11-23 15:56:28 GMT 40.496109 -80.243698 0 130 3
2021-11-23 15:56:27 GMT 40.496101 -80.243721 0 130 3
2021-11-23 15:56:25 GMT 40.496090 -80.243729 0 130 7
2021-11-23 15:56:24 GMT 40.496090 -80.243942 0 130 4
2021-11-23 15:56:22 GMT 40.496101 -80.243896 0 130 4
2021-11-23 15:56:21 GMT 40.496109 -80.243919 0 128 7
2021-11-23 15:56:19 GMT 40.496120 -80.243660 0 128 11
2021-11-23 15:56:18 GMT 40.496120 -80.243729 0 128 11
2021-11-23 15:56:16 GMT 40.496109 -80.243889 0 128 4
2021-11-23 15:56:15 GMT 40.496090 -80.243851 0 128 3
2021-11-23 15:56:13 GMT 40.496078 -80.243736 0 128 1
2021-11-23 15:56:11 GMT 40.496090 -80.243736 0 128 0
2021-11-23 15:56:08 GMT 40.496109 -80.243736 0 128 0
2021-11-23 15:56:06 GMT 40.496101 -80.243752 0 128 1
2021-11-23 15:56:05 GMT 40.496101 -80.243759 0 128 1
2021-11-23 15:56:02 GMT 40.496101 -80.243736 0 128 1
2021-11-23 15:56:00 GMT 40.496109 -80.243721 0 128 1
2021-11-23 15:55:59 GMT 40.496101 -80.243683 0 128 2
2021-11-23 15:55:57 GMT 40.496101 -80.243690 0 128 2
2021-11-23 15:55:55 GMT 40.496101 -80.243698 0 128 2
2021-11-23 15:55:53 GMT 40.496090 -80.243752 0 130 1
2021-11-23 15:55:52 GMT 40.496090 -80.243820 0 130 7
2021-11-23 15:55:50 GMT 40.496078 -80.243813 0 155 2
2021-11-23 15:55:49 GMT 40.496078 -80.243721 0 155 9
2021-11-23 15:55:47 GMT 40.496101 -80.243889 0 109 12
2021-11-23 15:55:46 GMT 40.496090 -80.243668 0 109 7
2021-11-23 15:55:45 GMT 40.496090 -80.243690 0 117 8
2021-11-23 15:55:43 GMT 40.496078 -80.243912 0 152 5
2021-11-23 15:55:42 GMT 40.496101 -80.243896 0 152 8
2021-11-23 15:55:41 GMT 40.496109 -80.243851 0 152 10
2021-11-23 15:55:39 GMT 40.496101 -80.243721 0 152 2
2021-11-23 15:55:38 GMT 40.496101 -80.243690 0 152 6
2021-11-23 15:55:36 GMT 40.496021 -80.244003 0 152 7
2021-11-23 15:55:35 GMT 40.496029 -80.243958 0 152 7
2021-11-23 15:55:34 GMT 40.496052 -80.243881 0 152 7
2021-11-23 15:55:32 GMT 40.496071 -80.243843 0 152 7
2021-11-23 15:55:31 GMT 40.496071 -80.243668 0 152 9
2021-11-23 15:55:30 GMT 40.496120 -80.243889 0 152 3
2021-11-23 15:55:27 GMT 40.496151 -80.243896 0 152 3
2021-11-23 15:55:25 GMT 40.496159 -80.243912 0 148 4
2021-11-23 15:55:23 GMT 40.496189 -80.243881 0 148 4
2021-11-23 15:55:21 GMT 40.496239 -80.243889 0 148 4
2021-11-23 15:55:20 GMT 40.496250 -80.243912 0 148 4
2021-11-23 15:55:18 GMT 40.496330 -80.243919 0 148 4
2021-11-23 15:55:17 GMT 40.496330 -80.243942 0 148 4
2021-11-23 15:55:16 GMT 40.496342 -80.243958 0 148 4
2021-11-23 15:55:14 GMT 40.496391 -80.244049 0 148 1
2021-11-23 15:55:13 GMT 40.496380 -80.244057 0 148 1
2021-11-23 15:55:11 GMT 40.496380 -80.244080 0 148 1
2021-11-23 15:55:09 GMT 40.496368 -80.244087 0 148 1
2021-11-23 15:55:08 GMT 40.496399 -80.244034 0 148 5
2021-11-23 15:55:07 GMT 40.496288 -80.244118 0 148 4
2021-11-23 15:55:05 GMT 40.496311 -80.244141 0 148 4

Making use of Plane Finder data

You are free to use the raw flight data, aircraft information and images provided in this report for your own purposes provided the data is correctly attributed to Plane Finder. We ask that you please credit Plane Finder and link to planefinder.net in close proximity to the content.

Optionally one of the following logos (no smaller then 150x24px) can be used and must link to planefinder.net

Embedding the Plane Finder map

You are welcome to embed the Plane Finder playback map on your website to offer visitors a more interactive experience. We suggest using the following HTML code:

<iframe src="//planefinder.net/data/report/UA3651-N642RW-7700-squawk-2021-11-23/map" width="800" height="600" seamless="seamless"></iframe>

Where our data comes from

Plane Finder has a global network of data feeds and antenna radars that receive data broadcast directly from aircraft. The primary technologies used are ADS-B and MLAT. We also show feeds from the FAA and a FLARM glider feed.

Click here to find out more about the Plane Finder network.

How we collect our data